<?xml version='1.0' encoding='UTF-8'?>
<gpx version="1.1" creator="https://www.komoot.de" xmlns="http://www.topografix.com/GPX/1/1" xmlns:xsi="http://www.w3.org/2001/XMLSchema-instance" xsi:schemaLocation="http://www.topografix.com/GPX/1/1 http://www.topografix.com/GPX/1/1/gpx.xsd">
  <metadata>
    <name>Ukraine day 4: Cycling in Lviv</name>
    <author>
      <link href="https://www.komoot.de">
        <text>komoot</text>
        <type>text/html</type>
      </link>
    </author>
  </metadata>
  <trk>
    <name>Ukraine day 4: Cycling in Lviv</name>
    <trkseg>
      <trkpt lat="49.840637" lon="24.035759">
        <ele>324.742832</ele>
        <time>2019-06-08T07:37:38.000Z</time>
      </trkpt>
      <trkpt lat="49.840733" lon="24.035723">
        <ele>324.742832</ele>
        <time>2019-06-08T07:37:51.000Z</time>
      </trkpt>
      <trkpt lat="49.840836" lon="24.035686">
        <ele>324.742832</ele>
        <time>2019-06-08T07:37:59.000Z</time>
      </trkpt>
      <trkpt lat="49.840930" lon="24.035635">
        <ele>324.742832</ele>
        <time>2019-06-08T07:38:06.000Z</time>
      </trkpt>
      <trkpt lat="49.841007" lon="24.035717">
        <ele>324.742832</ele>
        <time>2019-06-08T07:38:12.000Z</time>
      </trkpt>
      <trkpt lat="49.841034" lon="24.035860">
        <ele>324.742832</ele>
        <time>2019-06-08T07:38:29.000Z</time>
      </trkpt>
      <trkpt lat="49.841080" lon="24.035992">
        <ele>324.742832</ele>
        <time>2019-06-08T07:38:39.000Z</time>
      </trkpt>
      <trkpt lat="49.841103" lon="24.036133">
        <ele>324.742832</ele>
        <time>2019-06-08T07:38:48.000Z</time>
      </trkpt>
      <trkpt lat="49.841130" lon="24.036280">
        <ele>324.742832</ele>
        <time>2019-06-08T07:38:57.000Z</time>
      </trkpt>
      <trkpt lat="49.841210" lon="24.036350">
        <ele>324.742832</ele>
        <time>2019-06-08T07:39:10.000Z</time>
      </trkpt>
      <trkpt lat="49.841320" lon="24.036354">
        <ele>325.222755</ele>
        <time>2019-06-08T07:39:17.000Z</time>
      </trkpt>
      <trkpt lat="49.841427" lon="24.036312">
        <ele>325.843876</ele>
        <time>2019-06-08T07:39:22.000Z</time>
      </trkpt>
      <trkpt lat="49.841520" lon="24.036290">
        <ele>326.373276</ele>
        <time>2019-06-08T07:39:26.000Z</time>
      </trkpt>
      <trkpt lat="49.841606" lon="24.036236">
        <ele>326.895402</ele>
        <time>2019-06-08T07:39:30.000Z</time>
      </trkpt>
      <trkpt lat="49.841713" lon="24.036203">
        <ele>327.509325</ele>
        <time>2019-06-08T07:39:35.000Z</time>
      </trkpt>
      <trkpt lat="49.841790" lon="24.036276">
        <ele>328.017202</ele>
        <time>2019-06-08T07:39:40.000Z</time>
      </trkpt>
      <trkpt lat="49.841835" lon="24.036430">
        <ele>328.630776</ele>
        <time>2019-06-08T07:39:45.000Z</time>
      </trkpt>
      <trkpt lat="49.841846" lon="24.036585">
        <ele>329.196681</ele>
        <time>2019-06-08T07:39:49.000Z</time>
      </trkpt>
      <trkpt lat="49.841858" lon="24.036757">
        <ele>329.824525</ele>
        <time>2019-06-08T07:39:53.000Z</time>
      </trkpt>
      <trkpt lat="49.841880" lon="24.036898">
        <ele>330.350990</ele>
        <time>2019-06-08T07:39:57.000Z</time>
      </trkpt>
      <trkpt lat="49.841890" lon="24.037040">
        <ele>330.869383</ele>
        <time>2019-06-08T07:40:01.000Z</time>
      </trkpt>
      <trkpt lat="49.841915" lon="24.037205">
        <ele>331.484486</ele>
        <time>2019-06-08T07:40:06.000Z</time>
      </trkpt>
      <trkpt lat="49.841938" lon="24.037357">
        <ele>332.051088</ele>
        <time>2019-06-08T07:40:12.000Z</time>
      </trkpt>
      <trkpt lat="49.841960" lon="24.037518">
        <ele>332.648342</ele>
        <time>2019-06-08T07:40:17.000Z</time>
      </trkpt>
      <trkpt lat="49.842003" lon="24.037672">
        <ele>333.257355</ele>
        <time>2019-06-08T07:40:22.000Z</time>
      </trkpt>
      <trkpt lat="49.842022" lon="24.037830">
        <ele>333.840632</ele>
        <time>2019-06-08T07:40:27.000Z</time>
      </trkpt>
      <trkpt lat="49.842050" lon="24.037994">
        <ele>334.456304</ele>
        <time>2019-06-08T07:40:32.000Z</time>
      </trkpt>
      <trkpt lat="49.842083" lon="24.038157">
        <ele>335.071193</ele>
        <time>2019-06-08T07:40:37.000Z</time>
      </trkpt>
      <trkpt lat="49.842110" lon="24.038322">
        <ele>335.674053</ele>
        <time>2019-06-08T07:40:42.000Z</time>
      </trkpt>
      <trkpt lat="49.842136" lon="24.038486">
        <ele>336.272145</ele>
        <time>2019-06-08T07:40:47.000Z</time>
      </trkpt>
      <trkpt lat="49.842167" lon="24.038649">
        <ele>336.873982</ele>
        <time>2019-06-08T07:40:52.000Z</time>
      </trkpt>
      <trkpt lat="49.842194" lon="24.038795">
        <ele>337.411875</ele>
        <time>2019-06-08T07:40:57.000Z</time>
      </trkpt>
      <trkpt lat="49.842220" lon="24.038950">
        <ele>337.979066</ele>
        <time>2019-06-08T07:41:03.000Z</time>
      </trkpt>
      <trkpt lat="49.842255" lon="24.039104">
        <ele>338.557327</ele>
        <time>2019-06-08T07:41:08.000Z</time>
      </trkpt>
      <trkpt lat="49.842274" lon="24.039259">
        <ele>339.116081</ele>
        <time>2019-06-08T07:41:13.000Z</time>
      </trkpt>
      <trkpt lat="49.842300" lon="24.039412">
        <ele>339.676419</ele>
        <time>2019-06-08T07:41:18.000Z</time>
      </trkpt>
      <trkpt lat="49.842316" lon="24.039568">
        <ele>340.235829</ele>
        <time>2019-06-08T07:41:23.000Z</time>
      </trkpt>
      <trkpt lat="49.842354" lon="24.039730">
        <ele>340.846316</ele>
        <time>2019-06-08T07:41:28.000Z</time>
      </trkpt>
      <trkpt lat="49.842370" lon="24.039900">
        <ele>341.454740</ele>
        <time>2019-06-08T07:41:33.000Z</time>
      </trkpt>
      <trkpt lat="49.842403" lon="24.040058">
        <ele>342.042903</ele>
        <time>2019-06-08T07:41:38.000Z</time>
      </trkpt>
      <trkpt lat="49.842453" lon="24.040192">
        <ele>342.591166</ele>
        <time>2019-06-08T07:41:43.000Z</time>
      </trkpt>
      <trkpt lat="49.842460" lon="24.040333">
        <ele>343.091987</ele>
        <time>2019-06-08T07:41:48.000Z</time>
      </trkpt>
      <trkpt lat="49.842403" lon="24.040442">
        <ele>343.588967</ele>
        <time>2019-06-08T07:41:52.000Z</time>
      </trkpt>
      <trkpt lat="49.842354" lon="24.040580">
        <ele>344.146867</ele>
        <time>2019-06-08T07:41:57.000Z</time>
      </trkpt>
      <trkpt lat="49.842426" lon="24.040680">
        <ele>344.677670</ele>
        <time>2019-06-08T07:42:04.000Z</time>
      </trkpt>
      <trkpt lat="49.842514" lon="24.040775">
        <ele>344.732305</ele>
        <time>2019-06-08T07:42:11.000Z</time>
      </trkpt>
      <trkpt lat="49.842610" lon="24.040850">
        <ele>344.721674</ele>
        <time>2019-06-08T07:42:17.000Z</time>
      </trkpt>
      <trkpt lat="49.842700" lon="24.040920">
        <ele>344.711716</ele>
        <time>2019-06-08T07:42:23.000Z</time>
      </trkpt>
      <trkpt lat="49.842790" lon="24.040990">
        <ele>344.701758</ele>
        <time>2019-06-08T07:42:29.000Z</time>
      </trkpt>
      <trkpt lat="49.842884" lon="24.040983">
        <ele>344.692451</ele>
        <time>2019-06-08T07:42:36.000Z</time>
      </trkpt>
      <trkpt lat="49.842960" lon="24.040905">
        <ele>344.683437</ele>
        <time>2019-06-08T07:42:41.000Z</time>
      </trkpt>
      <trkpt lat="49.843000" lon="24.040752">
        <ele>344.672908</ele>
        <time>2019-06-08T07:42:45.000Z</time>
      </trkpt>
      <trkpt lat="49.843033" lon="24.040530">
        <ele>344.658377</ele>
        <time>2019-06-08T07:42:50.000Z</time>
      </trkpt>
      <trkpt lat="49.843063" lon="24.040367">
        <ele>344.647566</ele>
        <time>2019-06-08T07:42:53.000Z</time>
      </trkpt>
      <trkpt lat="49.843094" lon="24.040195">
        <ele>344.636176</ele>
        <time>2019-06-08T07:42:56.000Z</time>
      </trkpt>
      <trkpt lat="49.843117" lon="24.040026">
        <ele>344.625160</ele>
        <time>2019-06-08T07:42:59.000Z</time>
      </trkpt>
      <trkpt lat="49.843155" lon="24.039837">
        <ele>344.612534</ele>
        <time>2019-06-08T07:43:02.000Z</time>
      </trkpt>
      <trkpt lat="49.843178" lon="24.039692">
        <ele>344.603010</ele>
        <time>2019-06-08T07:43:04.000Z</time>
      </trkpt>
      <trkpt lat="49.843210" lon="24.039550">
        <ele>344.593416</ele>
        <time>2019-06-08T07:43:06.000Z</time>
      </trkpt>
      <trkpt lat="49.843258" lon="24.039394">
        <ele>344.582392</ele>
        <time>2019-06-08T07:43:09.000Z</time>
      </trkpt>
      <trkpt lat="49.843334" lon="24.039286">
        <ele>344.572197</ele>
        <time>2019-06-08T07:43:14.000Z</time>
      </trkpt>
      <trkpt lat="49.843410" lon="24.039185">
        <ele>344.631570</ele>
        <time>2019-06-08T07:43:19.000Z</time>
      </trkpt>
      <trkpt lat="49.843490" lon="24.039082">
        <ele>345.074463</ele>
        <time>2019-06-08T07:43:23.000Z</time>
      </trkpt>
      <trkpt lat="49.843580" lon="24.038960">
        <ele>345.583630</ele>
        <time>2019-06-08T07:43:27.000Z</time>
      </trkpt>
      <trkpt lat="49.843666" lon="24.038868">
        <ele>346.028647</ele>
        <time>2019-06-08T07:43:31.000Z</time>
      </trkpt>
      <trkpt lat="49.843750" lon="24.038786">
        <ele>346.451428</ele>
        <time>2019-06-08T07:43:35.000Z</time>
      </trkpt>
      <trkpt lat="49.843853" lon="24.038720">
        <ele>346.926126</ele>
        <time>2019-06-08T07:43:39.000Z</time>
      </trkpt>
      <trkpt lat="49.843960" lon="24.038698">
        <ele>347.385869</ele>
        <time>2019-06-08T07:43:44.000Z</time>
      </trkpt>
      <trkpt lat="49.844050" lon="24.038664">
        <ele>347.780426</ele>
        <time>2019-06-08T07:43:48.000Z</time>
      </trkpt>
      <trkpt lat="49.844147" lon="24.038633">
        <ele>348.202270</ele>
        <time>2019-06-08T07:43:53.000Z</time>
      </trkpt>
      <trkpt lat="49.844254" lon="24.038614">
        <ele>348.661003</ele>
        <time>2019-06-08T07:43:57.000Z</time>
      </trkpt>
      <trkpt lat="49.844350" lon="24.038607">
        <ele>349.070357</ele>
        <time>2019-06-08T07:44:01.000Z</time>
      </trkpt>
      <trkpt lat="49.844444" lon="24.038590">
        <ele>349.473453</ele>
        <time>2019-06-08T07:44:05.000Z</time>
      </trkpt>
      <trkpt lat="49.844547" lon="24.038656">
        <ele>349.948150</ele>
        <time>2019-06-08T07:44:09.000Z</time>
      </trkpt>
      <trkpt lat="49.844624" lon="24.038755">
        <ele>350.374189</ele>
        <time>2019-06-08T07:44:14.000Z</time>
      </trkpt>
      <trkpt lat="49.844673" lon="24.038890">
        <ele>350.799698</ele>
        <time>2019-06-08T07:44:18.000Z</time>
      </trkpt>
      <trkpt lat="49.844723" lon="24.039028">
        <ele>351.234477</ele>
        <time>2019-06-08T07:44:23.000Z</time>
      </trkpt>
      <trkpt lat="49.844780" lon="24.039175">
        <ele>351.705617</ele>
        <time>2019-06-08T07:44:28.000Z</time>
      </trkpt>
      <trkpt lat="49.844830" lon="24.039307">
        <ele>352.126105</ele>
        <time>2019-06-08T07:44:32.000Z</time>
      </trkpt>
      <trkpt lat="49.844887" lon="24.039421">
        <ele>352.762330</ele>
        <time>2019-06-08T07:44:36.000Z</time>
      </trkpt>
      <trkpt lat="49.844940" lon="24.039549">
        <ele>353.517401</ele>
        <time>2019-06-08T07:44:41.000Z</time>
      </trkpt>
      <trkpt lat="49.844990" lon="24.039667">
        <ele>354.218264</ele>
        <time>2019-06-08T07:44:45.000Z</time>
      </trkpt>
      <trkpt lat="49.845050" lon="24.039812">
        <ele>355.073453</ele>
        <time>2019-06-08T07:44:50.000Z</time>
      </trkpt>
      <trkpt lat="49.845100" lon="24.039928">
        <ele>355.766040</ele>
        <time>2019-06-08T07:44:54.000Z</time>
      </trkpt>
      <trkpt lat="49.845158" lon="24.040056">
        <ele>356.542579</ele>
        <time>2019-06-08T07:44:58.000Z</time>
      </trkpt>
      <trkpt lat="49.845215" lon="24.040194">
        <ele>357.356052</ele>
        <time>2019-06-08T07:45:03.000Z</time>
      </trkpt>
      <trkpt lat="49.845260" lon="24.040314">
        <ele>358.045101</ele>
        <time>2019-06-08T07:45:07.000Z</time>
      </trkpt>
      <trkpt lat="49.845314" lon="24.040450">
        <ele>358.837883</ele>
        <time>2019-06-08T07:45:13.000Z</time>
      </trkpt>
      <trkpt lat="49.845398" lon="24.040518">
        <ele>359.567275</ele>
        <time>2019-06-08T07:45:18.000Z</time>
      </trkpt>
      <trkpt lat="49.845500" lon="24.040560">
        <ele>360.379629</ele>
        <time>2019-06-08T07:45:24.000Z</time>
      </trkpt>
      <trkpt lat="49.845596" lon="24.040620">
        <ele>361.176351</ele>
        <time>2019-06-08T07:45:30.000Z</time>
      </trkpt>
      <trkpt lat="49.845684" lon="24.040709">
        <ele>361.985060</ele>
        <time>2019-06-08T07:45:34.000Z</time>
      </trkpt>
      <trkpt lat="49.845764" lon="24.040773">
        <ele>362.677975</ele>
        <time>2019-06-08T07:45:38.000Z</time>
      </trkpt>
      <trkpt lat="49.845848" lon="24.040827">
        <ele>363.377923</ele>
        <time>2019-06-08T07:45:42.000Z</time>
      </trkpt>
      <trkpt lat="49.845950" lon="24.040873">
        <ele>364.195598</ele>
        <time>2019-06-08T07:45:47.000Z</time>
      </trkpt>
      <trkpt lat="49.846043" lon="24.040937">
        <ele>364.978789</ele>
        <time>2019-06-08T07:45:52.000Z</time>
      </trkpt>
      <trkpt lat="49.846123" lon="24.040998">
        <ele>365.665004</ele>
        <time>2019-06-08T07:45:57.000Z</time>
      </trkpt>
      <trkpt lat="49.846214" lon="24.041067">
        <ele>366.157563</ele>
        <time>2019-06-08T07:46:01.000Z</time>
      </trkpt>
      <trkpt lat="49.846313" lon="24.041166">
        <ele>366.369270</ele>
        <time>2019-06-08T07:46:05.000Z</time>
      </trkpt>
      <trkpt lat="49.846428" lon="24.041199">
        <ele>366.579456</ele>
        <time>2019-06-08T07:46:09.000Z</time>
      </trkpt>
      <trkpt lat="49.846523" lon="24.041159">
        <ele>366.756371</ele>
        <time>2019-06-08T07:46:13.000Z</time>
      </trkpt>
      <trkpt lat="49.846630" lon="24.041199">
        <ele>366.954179</ele>
        <time>2019-06-08T07:46:17.000Z</time>
      </trkpt>
      <trkpt lat="49.846710" lon="24.041270">
        <ele>367.119834</ele>
        <time>2019-06-08T07:46:20.000Z</time>
      </trkpt>
      <trkpt lat="49.846798" lon="24.041327">
        <ele>367.291228</ele>
        <time>2019-06-08T07:46:24.000Z</time>
      </trkpt>
      <trkpt lat="49.846893" lon="24.041376">
        <ele>367.471158</ele>
        <time>2019-06-08T07:46:28.000Z</time>
      </trkpt>
      <trkpt lat="49.846990" lon="24.041437">
        <ele>367.659274</ele>
        <time>2019-06-08T07:46:32.000Z</time>
      </trkpt>
      <trkpt lat="49.847084" lon="24.041502">
        <ele>367.844243</ele>
        <time>2019-06-08T07:46:36.000Z</time>
      </trkpt>
      <trkpt lat="49.847170" lon="24.041567">
        <ele>368.016181</ele>
        <time>2019-06-08T07:46:40.000Z</time>
      </trkpt>
      <trkpt lat="49.847267" lon="24.041643">
        <ele>368.211495</ele>
        <time>2019-06-08T07:46:44.000Z</time>
      </trkpt>
      <trkpt lat="49.847366" lon="24.041643">
        <ele>368.389417</ele>
        <time>2019-06-08T07:46:49.000Z</time>
      </trkpt>
      <trkpt lat="49.847450" lon="24.041685">
        <ele>368.548034</ele>
        <time>2019-06-08T07:46:55.000Z</time>
      </trkpt>
      <trkpt lat="49.847560" lon="24.041655">
        <ele>368.748759</ele>
        <time>2019-06-08T07:47:02.000Z</time>
      </trkpt>
      <trkpt lat="49.847775" lon="24.041560">
        <ele>369.150534</ele>
        <time>2019-06-08T07:48:01.000Z</time>
      </trkpt>
      <trkpt lat="49.847866" lon="24.041477">
        <ele>369.393542</ele>
        <time>2019-06-08T07:48:06.000Z</time>
      </trkpt>
      <trkpt lat="49.847946" lon="24.041391">
        <ele>369.815969</ele>
        <time>2019-06-08T07:48:11.000Z</time>
      </trkpt>
      <trkpt lat="49.848030" lon="24.041306">
        <ele>370.251238</ele>
        <time>2019-06-08T07:48:15.000Z</time>
      </trkpt>
      <trkpt lat="49.848114" lon="24.041256">
        <ele>370.641700</ele>
        <time>2019-06-08T07:48:19.000Z</time>
      </trkpt>
      <trkpt lat="49.848194" lon="24.041168">
        <ele>371.067339</ele>
        <time>2019-06-08T07:48:23.000Z</time>
      </trkpt>
      <trkpt lat="49.848290" lon="24.041060">
        <ele>371.582020</ele>
        <time>2019-06-08T07:48:27.000Z</time>
      </trkpt>
      <trkpt lat="49.848366" lon="24.040943">
        <ele>372.046744</ele>
        <time>2019-06-08T07:48:31.000Z</time>
      </trkpt>
      <trkpt lat="49.848410" lon="24.040792">
        <ele>372.510425</ele>
        <time>2019-06-08T07:48:35.000Z</time>
      </trkpt>
      <trkpt lat="49.848484" lon="24.040668">
        <ele>372.983212</ele>
        <time>2019-06-08T07:48:39.000Z</time>
      </trkpt>
      <trkpt lat="49.848570" lon="24.040579">
        <ele>373.431890</ele>
        <time>2019-06-08T07:48:43.000Z</time>
      </trkpt>
      <trkpt lat="49.848648" lon="24.040482">
        <ele>373.865772</ele>
        <time>2019-06-08T07:48:47.000Z</time>
      </trkpt>
      <trkpt lat="49.848724" lon="24.040400">
        <ele>374.267554</ele>
        <time>2019-06-08T07:48:51.000Z</time>
      </trkpt>
      <trkpt lat="49.848812" lon="24.040348">
        <ele>374.676228</ele>
        <time>2019-06-08T07:48:55.000Z</time>
      </trkpt>
      <trkpt lat="49.848896" lon="24.040262">
        <ele>375.113030</ele>
        <time>2019-06-08T07:49:00.000Z</time>
      </trkpt>
      <trkpt lat="49.848965" lon="24.040140">
        <ele>375.567131</ele>
        <time>2019-06-08T07:49:05.000Z</time>
      </trkpt>
      <trkpt lat="49.849014" lon="24.040000">
        <ele>376.012876</ele>
        <time>2019-06-08T07:49:12.000Z</time>
      </trkpt>
      <trkpt lat="49.849060" lon="24.039867">
        <ele>376.435200</ele>
        <time>2019-06-08T07:49:17.000Z</time>
      </trkpt>
      <trkpt lat="49.849090" lon="24.039732">
        <ele>376.834767</ele>
        <time>2019-06-08T07:49:24.000Z</time>
      </trkpt>
      <trkpt lat="49.849083" lon="24.039574">
        <ele>377.649837</ele>
        <time>2019-06-08T07:49:30.000Z</time>
      </trkpt>
      <trkpt lat="49.849052" lon="24.039420">
        <ele>379.090092</ele>
        <time>2019-06-08T07:49:36.000Z</time>
      </trkpt>
      <trkpt lat="49.849056" lon="24.039263">
        <ele>380.492785</ele>
        <time>2019-06-08T07:49:42.000Z</time>
      </trkpt>
      <trkpt lat="49.849030" lon="24.039124">
        <ele>381.784850</ele>
        <time>2019-06-08T07:49:48.000Z</time>
      </trkpt>
      <trkpt lat="49.848990" lon="24.038986">
        <ele>383.135581</ele>
        <time>2019-06-08T07:50:01.000Z</time>
      </trkpt>
      <trkpt lat="49.848965" lon="24.038843">
        <ele>384.458290</ele>
        <time>2019-06-08T07:50:16.000Z</time>
      </trkpt>
      <trkpt lat="49.848900" lon="24.038738">
        <ele>385.757735</ele>
        <time>2019-06-08T07:50:27.000Z</time>
      </trkpt>
      <trkpt lat="49.848846" lon="24.038628">
        <ele>386.991962</ele>
        <time>2019-06-08T07:50:36.000Z</time>
      </trkpt>
      <trkpt lat="49.848812" lon="24.038494">
        <ele>388.277523</ele>
        <time>2019-06-08T07:50:44.000Z</time>
      </trkpt>
      <trkpt lat="49.848766" lon="24.038374">
        <ele>389.523829</ele>
        <time>2019-06-08T07:50:53.000Z</time>
      </trkpt>
      <trkpt lat="49.848713" lon="24.038252">
        <ele>390.837105</ele>
        <time>2019-06-08T07:51:00.000Z</time>
      </trkpt>
      <trkpt lat="49.848670" lon="24.038116">
        <ele>392.189344</ele>
        <time>2019-06-08T07:51:09.000Z</time>
      </trkpt>
      <trkpt lat="49.848625" lon="24.037987">
        <ele>393.498713</ele>
        <time>2019-06-08T07:51:19.000Z</time>
      </trkpt>
      <trkpt lat="49.848590" lon="24.037851">
        <ele>394.805979</ele>
        <time>2019-06-08T07:51:26.000Z</time>
      </trkpt>
      <trkpt lat="49.848583" lon="24.037710">
        <ele>396.068478</ele>
        <time>2019-06-08T07:51:33.000Z</time>
      </trkpt>
      <trkpt lat="49.848583" lon="24.037569">
        <ele>397.327251</ele>
        <time>2019-06-08T07:51:45.000Z</time>
      </trkpt>
      <trkpt lat="49.848545" lon="24.037422">
        <ele>398.741122</ele>
        <time>2019-06-08T07:52:10.000Z</time>
      </trkpt>
      <trkpt lat="49.848520" lon="24.037281">
        <ele>400.046618</ele>
        <time>2019-06-08T07:52:17.000Z</time>
      </trkpt>
      <trkpt lat="49.848484" lon="24.037150">
        <ele>401.317901</ele>
        <time>2019-06-08T07:52:26.000Z</time>
      </trkpt>
      <trkpt lat="49.848440" lon="24.037016">
        <ele>402.257946</ele>
        <time>2019-06-08T07:52:34.000Z</time>
      </trkpt>
      <trkpt lat="49.848396" lon="24.036871">
        <ele>402.802587</ele>
        <time>2019-06-08T07:52:41.000Z</time>
      </trkpt>
      <trkpt lat="49.848370" lon="24.036732">
        <ele>403.294469</ele>
        <time>2019-06-08T07:52:50.000Z</time>
      </trkpt>
      <trkpt lat="49.848335" lon="24.036594">
        <ele>403.798453</ele>
        <time>2019-06-08T07:52:57.000Z</time>
      </trkpt>
      <trkpt lat="49.848300" lon="24.036459">
        <ele>404.292964</ele>
        <time>2019-06-08T07:53:04.000Z</time>
      </trkpt>
      <trkpt lat="49.848248" lon="24.036339">
        <ele>404.784336</ele>
        <time>2019-06-08T07:53:12.000Z</time>
      </trkpt>
      <trkpt lat="49.848180" lon="24.036243">
        <ele>405.269008</ele>
        <time>2019-06-08T07:53:20.000Z</time>
      </trkpt>
      <trkpt lat="49.848095" lon="24.036200">
        <ele>405.740251</ele>
        <time>2019-06-08T07:53:30.000Z</time>
      </trkpt>
      <trkpt lat="49.847996" lon="24.036196">
        <ele>406.262227</ele>
        <time>2019-06-08T07:53:38.000Z</time>
      </trkpt>
      <trkpt lat="49.847900" lon="24.036219">
        <ele>406.774217</ele>
        <time>2019-06-08T07:53:48.000Z</time>
      </trkpt>
      <trkpt lat="49.847816" lon="24.036297">
        <ele>407.290252</ele>
        <time>2019-06-08T07:54:00.000Z</time>
      </trkpt>
      <trkpt lat="49.847767" lon="24.036425">
        <ele>407.796167</ele>
        <time>2019-06-08T07:54:09.000Z</time>
      </trkpt>
      <trkpt lat="49.847775" lon="24.036568">
        <ele>408.284001</ele>
        <time>2019-06-08T07:54:25.000Z</time>
      </trkpt>
      <trkpt lat="49.847797" lon="24.036709">
        <ele>408.777040</ele>
        <time>2019-06-08T07:54:50.000Z</time>
      </trkpt>
      <trkpt lat="49.847824" lon="24.036846">
        <ele>409.263918</ele>
        <time>2019-06-08T07:55:00.000Z</time>
      </trkpt>
      <trkpt lat="49.847836" lon="24.037010">
        <ele>409.824874</ele>
        <time>2019-06-08T07:55:10.000Z</time>
      </trkpt>
      <trkpt lat="49.847847" lon="24.037160">
        <ele>410.337958</ele>
        <time>2019-06-08T07:55:19.000Z</time>
      </trkpt>
      <trkpt lat="49.847866" lon="24.037313">
        <ele>410.867506</ele>
        <time>2019-06-08T07:55:27.000Z</time>
      </trkpt>
      <trkpt lat="49.847874" lon="24.037476">
        <ele>411.423089</ele>
        <time>2019-06-08T07:55:32.000Z</time>
      </trkpt>
      <trkpt lat="49.847878" lon="24.037617">
        <ele>411.828534</ele>
        <time>2019-06-08T07:55:36.000Z</time>
      </trkpt>
      <trkpt lat="49.847890" lon="24.037770">
        <ele>412.258000</ele>
        <time>2019-06-08T07:55:41.000Z</time>
      </trkpt>
      <trkpt lat="49.847908" lon="24.037920">
        <ele>412.683142</ele>
        <time>2019-06-08T07:55:46.000Z</time>
      </trkpt>
      <trkpt lat="49.847923" lon="24.038070">
        <ele>413.106103</ele>
        <time>2019-06-08T07:55:51.000Z</time>
      </trkpt>
      <trkpt lat="49.847940" lon="24.038229">
        <ele>413.555195</ele>
        <time>2019-06-08T07:55:57.000Z</time>
      </trkpt>
      <trkpt lat="49.847950" lon="24.038380">
        <ele>413.978160</ele>
        <time>2019-06-08T07:56:03.000Z</time>
      </trkpt>
      <trkpt lat="49.847942" lon="24.038548">
        <ele>414.447556</ele>
        <time>2019-06-08T07:56:11.000Z</time>
      </trkpt>
      <trkpt lat="49.847977" lon="24.038687">
        <ele>414.863353</ele>
        <time>2019-06-08T07:56:19.000Z</time>
      </trkpt>
      <trkpt lat="49.847908" lon="24.038795">
        <ele>415.286986</ele>
        <time>2019-06-08T08:01:59.000Z</time>
      </trkpt>
      <trkpt lat="49.847816" lon="24.038836">
        <ele>415.700632</ele>
        <time>2019-06-08T08:02:09.000Z</time>
      </trkpt>
      <trkpt lat="49.847767" lon="24.038960">
        <ele>416.105871</ele>
        <time>2019-06-08T08:02:20.000Z</time>
      </trkpt>
      <trkpt lat="49.847755" lon="24.039114">
        <ele>416.538105</ele>
        <time>2019-06-08T08:02:29.000Z</time>
      </trkpt>
      <trkpt lat="49.847770" lon="24.039267">
        <ele>416.969330</ele>
        <time>2019-06-08T08:02:40.000Z</time>
      </trkpt>
      <trkpt lat="49.847786" lon="24.039420">
        <ele>417.401226</ele>
        <time>2019-06-08T08:02:53.000Z</time>
      </trkpt>
      <trkpt lat="49.847820" lon="24.039549">
        <ele>417.789544</ele>
        <time>2019-06-08T08:03:00.000Z</time>
      </trkpt>
      <trkpt lat="49.847890" lon="24.039667">
        <ele>418.236320</ele>
        <time>2019-06-08T08:03:09.000Z</time>
      </trkpt>
      <trkpt lat="49.847973" lon="24.039745">
        <ele>418.655699</ele>
        <time>2019-06-08T08:03:19.000Z</time>
      </trkpt>
      <trkpt lat="49.848053" lon="24.039814">
        <ele>419.051268</ele>
        <time>2019-06-08T08:03:28.000Z</time>
      </trkpt>
      <trkpt lat="49.848140" lon="24.039845">
        <ele>419.566934</ele>
        <time>2019-06-08T08:03:39.000Z</time>
      </trkpt>
      <trkpt lat="49.848220" lon="24.039770">
        <ele>420.272683</ele>
        <time>2019-06-08T08:03:56.000Z</time>
      </trkpt>
      <trkpt lat="49.848290" lon="24.039679">
        <ele>420.962269</ele>
        <time>2019-06-08T08:04:05.000Z</time>
      </trkpt>
      <trkpt lat="49.848354" lon="24.039572">
        <ele>421.672748</ele>
        <time>2019-06-08T08:04:14.000Z</time>
      </trkpt>
      <trkpt lat="49.848377" lon="24.039438">
        <ele>422.347786</ele>
        <time>2019-06-08T08:04:25.000Z</time>
      </trkpt>
      <trkpt lat="49.848423" lon="24.039312">
        <ele>423.052653</ele>
        <time>2019-06-08T08:04:34.000Z</time>
      </trkpt>
      <trkpt lat="49.848408" lon="24.039175">
        <ele>423.729125</ele>
        <time>2019-06-08T08:04:45.000Z</time>
      </trkpt>
      <trkpt lat="49.848360" lon="24.039050">
        <ele>424.437366</ele>
        <time>2019-06-08T08:04:55.000Z</time>
      </trkpt>
      <trkpt lat="49.848280" lon="24.038967">
        <ele>425.164027</ele>
        <time>2019-06-08T08:05:06.000Z</time>
      </trkpt>
      <trkpt lat="49.848194" lon="24.038920">
        <ele>425.852428</ele>
        <time>2019-06-08T08:05:16.000Z</time>
      </trkpt>
      <trkpt lat="49.848103" lon="24.038942">
        <ele>426.547740</ele>
        <time>2019-06-08T08:05:42.000Z</time>
      </trkpt>
      <trkpt lat="49.848053" lon="24.039059">
        <ele>427.231041</ele>
        <time>2019-06-08T08:06:11.000Z</time>
      </trkpt>
      <trkpt lat="49.848026" lon="24.039210">
        <ele>427.993865</ele>
        <time>2019-06-08T08:06:21.000Z</time>
      </trkpt>
      <trkpt lat="49.848070" lon="24.039331">
        <ele>428.670117</ele>
        <time>2019-06-08T08:06:28.000Z</time>
      </trkpt>
      <trkpt lat="49.848164" lon="24.039360">
        <ele>429.393686</ele>
        <time>2019-06-08T08:06:37.000Z</time>
      </trkpt>
      <trkpt lat="49.848244" lon="24.039293">
        <ele>430.080097</ele>
        <time>2019-06-08T08:06:46.000Z</time>
      </trkpt>
      <trkpt lat="49.848232" lon="24.039146">
        <ele>430.801419</ele>
        <time>2019-06-08T08:06:59.000Z</time>
      </trkpt>
      <trkpt lat="49.848150" lon="24.039091">
        <ele>431.475905</ele>
        <time>2019-06-08T08:07:11.000Z</time>
      </trkpt>
      <trkpt lat="49.848194" lon="24.039232">
        <ele>432.238463</ele>
        <time>2019-06-08T08:24:49.000Z</time>
      </trkpt>
      <trkpt lat="49.848130" lon="24.039347">
        <ele>432.727526</ele>
        <time>2019-06-08T08:27:43.000Z</time>
      </trkpt>
      <trkpt lat="49.848045" lon="24.039288">
        <ele>432.134076</ele>
        <time>2019-06-08T08:27:55.000Z</time>
      </trkpt>
      <trkpt lat="49.848038" lon="24.039145">
        <ele>431.544778</ele>
        <time>2019-06-08T08:28:09.000Z</time>
      </trkpt>
      <trkpt lat="49.848103" lon="24.039038">
        <ele>430.940714</ele>
        <time>2019-06-08T08:28:22.000Z</time>
      </trkpt>
      <trkpt lat="49.848175" lon="24.038937">
        <ele>430.322034</ele>
        <time>2019-06-08T08:28:49.000Z</time>
      </trkpt>
      <trkpt lat="49.848267" lon="24.038946">
        <ele>429.734592</ele>
        <time>2019-06-08T08:28:59.000Z</time>
      </trkpt>
      <trkpt lat="49.848343" lon="24.039030">
        <ele>429.139863</ele>
        <time>2019-06-08T08:29:14.000Z</time>
      </trkpt>
      <trkpt lat="49.848400" lon="24.039137">
        <ele>428.569551</ele>
        <time>2019-06-08T08:29:25.000Z</time>
      </trkpt>
      <trkpt lat="49.848450" lon="24.039265">
        <ele>427.954600</ele>
        <time>2019-06-08T08:29:37.000Z</time>
      </trkpt>
      <trkpt lat="49.848450" lon="24.039406">
        <ele>427.375215</ele>
        <time>2019-06-08T08:29:52.000Z</time>
      </trkpt>
      <trkpt lat="49.848404" lon="24.039528">
        <ele>426.794488</ele>
        <time>2019-06-08T08:30:10.000Z</time>
      </trkpt>
      <trkpt lat="49.848377" lon="24.039665">
        <ele>426.205832</ele>
        <time>2019-06-08T08:30:28.000Z</time>
      </trkpt>
      <trkpt lat="49.848297" lon="24.039764">
        <ele>425.553612</ele>
        <time>2019-06-08T08:30:44.000Z</time>
      </trkpt>
      <trkpt lat="49.848213" lon="24.039824">
        <ele>424.964267</ele>
        <time>2019-06-08T08:30:54.000Z</time>
      </trkpt>
      <trkpt lat="49.848114" lon="24.039800">
        <ele>424.325720</ele>
        <time>2019-06-08T08:31:01.000Z</time>
      </trkpt>
      <trkpt lat="49.848022" lon="24.039770">
        <ele>423.726623</ele>
        <time>2019-06-08T08:31:11.000Z</time>
      </trkpt>
      <trkpt lat="49.847935" lon="24.039713">
        <ele>423.124763</ele>
        <time>2019-06-08T08:31:29.000Z</time>
      </trkpt>
      <trkpt lat="49.847862" lon="24.039627">
        <ele>422.540561</ele>
        <time>2019-06-08T08:31:40.000Z</time>
      </trkpt>
      <trkpt lat="49.847820" lon="24.039497">
        <ele>421.943070</ele>
        <time>2019-06-08T08:31:52.000Z</time>
      </trkpt>
      <trkpt lat="49.847780" lon="24.039368">
        <ele>421.359968</ele>
        <time>2019-06-08T08:32:03.000Z</time>
      </trkpt>
      <trkpt lat="49.847790" lon="24.039228">
        <ele>420.897551</ele>
        <time>2019-06-08T08:32:15.000Z</time>
      </trkpt>
      <trkpt lat="49.847810" lon="24.039091">
        <ele>420.436412</ele>
        <time>2019-06-08T08:32:23.000Z</time>
      </trkpt>
      <trkpt lat="49.847847" lon="24.038954">
        <ele>419.948801</ele>
        <time>2019-06-08T08:32:33.000Z</time>
      </trkpt>
      <trkpt lat="49.847910" lon="24.038847">
        <ele>419.473126</ele>
        <time>2019-06-08T08:32:44.000Z</time>
      </trkpt>
      <trkpt lat="49.847977" lon="24.038736">
        <ele>418.973984</ele>
        <time>2019-06-08T08:32:56.000Z</time>
      </trkpt>
      <trkpt lat="49.847942" lon="24.038490">
        <ele>418.146969</ele>
        <time>2019-06-08T08:37:28.000Z</time>
      </trkpt>
      <trkpt lat="49.847923" lon="24.038311">
        <ele>417.551424</ele>
        <time>2019-06-08T08:37:31.000Z</time>
      </trkpt>
      <trkpt lat="49.847910" lon="24.038157">
        <ele>417.041546</ele>
        <time>2019-06-08T08:37:33.000Z</time>
      </trkpt>
      <trkpt lat="49.847904" lon="24.037973">
        <ele>416.436723</ele>
        <time>2019-06-08T08:37:36.000Z</time>
      </trkpt>
      <trkpt lat="49.847874" lon="24.037794">
        <ele>415.829561</ele>
        <time>2019-06-08T08:37:40.000Z</time>
      </trkpt>
      <trkpt lat="49.847870" lon="24.037642">
        <ele>415.330147</ele>
        <time>2019-06-08T08:37:43.000Z</time>
      </trkpt>
      <trkpt lat="49.847855" lon="24.037490">
        <ele>414.825338</ele>
        <time>2019-06-08T08:37:46.000Z</time>
      </trkpt>
      <trkpt lat="49.847843" lon="24.037325">
        <ele>414.280226</ele>
        <time>2019-06-08T08:37:50.000Z</time>
      </trkpt>
      <trkpt lat="49.847816" lon="24.037151">
        <ele>413.692696</ele>
        <time>2019-06-08T08:37:54.000Z</time>
      </trkpt>
      <trkpt lat="49.847810" lon="24.036985">
        <ele>413.146880</ele>
        <time>2019-06-08T08:37:58.000Z</time>
      </trkpt>
      <trkpt lat="49.847794" lon="24.036827">
        <ele>412.621825</ele>
        <time>2019-06-08T08:38:03.000Z</time>
      </trkpt>
      <trkpt lat="49.847760" lon="24.036680">
        <ele>412.046567</ele>
        <time>2019-06-08T08:38:08.000Z</time>
      </trkpt>
      <trkpt lat="49.847760" lon="24.036522">
        <ele>411.242748</ele>
        <time>2019-06-08T08:38:13.000Z</time>
      </trkpt>
      <trkpt lat="49.847797" lon="24.036392">
        <ele>410.519819</ele>
        <time>2019-06-08T08:38:17.000Z</time>
      </trkpt>
      <trkpt lat="49.847874" lon="24.036260">
        <ele>409.614259</ele>
        <time>2019-06-08T08:38:21.000Z</time>
      </trkpt>
      <trkpt lat="49.847958" lon="24.036180">
        <ele>408.836528</ele>
        <time>2019-06-08T08:38:24.000Z</time>
      </trkpt>
      <trkpt lat="49.848070" lon="24.036150">
        <ele>407.939795</ele>
        <time>2019-06-08T08:38:28.000Z</time>
      </trkpt>
      <trkpt lat="49.848164" lon="24.036156">
        <ele>407.197533</ele>
        <time>2019-06-08T08:38:32.000Z</time>
      </trkpt>
      <trkpt lat="49.848255" lon="24.036250">
        <ele>406.334883</ele>
        <time>2019-06-08T08:38:37.000Z</time>
      </trkpt>
      <trkpt lat="49.848310" lon="24.036385">
        <ele>405.522483</ele>
        <time>2019-06-08T08:38:42.000Z</time>
      </trkpt>
      <trkpt lat="49.848340" lon="24.036518">
        <ele>404.805654</ele>
        <time>2019-06-08T08:38:46.000Z</time>
      </trkpt>
      <trkpt lat="49.848380" lon="24.036694">
        <ele>403.856283</ele>
        <time>2019-06-08T08:38:50.000Z</time>
      </trkpt>
      <trkpt lat="49.848408" lon="24.036852">
        <ele>403.022670</ele>
        <time>2019-06-08T08:38:53.000Z</time>
      </trkpt>
      <trkpt lat="49.848446" lon="24.037000">
        <ele>402.212241</ele>
        <time>2019-06-08T08:38:55.000Z</time>
      </trkpt>
      <trkpt lat="49.848490" lon="24.037144">
        <ele>401.401569</ele>
        <time>2019-06-08T08:38:57.000Z</time>
      </trkpt>
      <trkpt lat="49.848540" lon="24.037296">
        <ele>400.533476</ele>
        <time>2019-06-08T08:38:59.000Z</time>
      </trkpt>
      <trkpt lat="49.848564" lon="24.037477">
        <ele>399.593393</ele>
        <time>2019-06-08T08:39:02.000Z</time>
      </trkpt>
      <trkpt lat="49.848583" lon="24.037672">
        <ele>398.590093</ele>
        <time>2019-06-08T08:39:05.000Z</time>
      </trkpt>
      <trkpt lat="49.848614" lon="24.037855">
        <ele>397.490847</ele>
        <time>2019-06-08T08:39:08.000Z</time>
      </trkpt>
      <trkpt lat="49.848648" lon="24.038004">
        <ele>396.415186</ele>
        <time>2019-06-08T08:39:10.000Z</time>
      </trkpt>
      <trkpt lat="49.848680" lon="24.038140">
        <ele>395.429925</ele>
        <time>2019-06-08T08:39:12.000Z</time>
      </trkpt>
      <trkpt lat="49.848720" lon="24.038280">
        <ele>394.387795</ele>
        <time>2019-06-08T08:39:14.000Z</time>
      </trkpt>
      <trkpt lat="49.848774" lon="24.038452">
        <ele>393.085853</ele>
        <time>2019-06-08T08:39:17.000Z</time>
      </trkpt>
      <trkpt lat="49.848840" lon="24.038563">
        <ele>392.058280</ele>
        <time>2019-06-08T08:39:21.000Z</time>
      </trkpt>
      <trkpt lat="49.848900" lon="24.038689">
        <ele>390.992286</ele>
        <time>2019-06-08T08:39:29.000Z</time>
      </trkpt>
      <trkpt lat="49.848946" lon="24.038809">
        <ele>390.042199</ele>
        <time>2019-06-08T08:39:31.000Z</time>
      </trkpt>
      <trkpt lat="49.849010" lon="24.039003">
        <ele>388.559154</ele>
        <time>2019-06-08T08:39:34.000Z</time>
      </trkpt>
      <trkpt lat="49.849064" lon="24.039180">
        <ele>387.226541</ele>
        <time>2019-06-08T08:39:36.000Z</time>
      </trkpt>
      <trkpt lat="49.849110" lon="24.039377">
        <ele>385.800645</ele>
        <time>2019-06-08T08:39:38.000Z</time>
      </trkpt>
      <trkpt lat="49.849144" lon="24.039576">
        <ele>384.399604</ele>
        <time>2019-06-08T08:39:40.000Z</time>
      </trkpt>
      <trkpt lat="49.849125" lon="24.039728">
        <ele>383.345902</ele>
        <time>2019-06-08T08:39:42.000Z</time>
      </trkpt>
      <trkpt lat="49.849083" lon="24.039873">
        <ele>382.264103</ele>
        <time>2019-06-08T08:39:45.000Z</time>
      </trkpt>
      <trkpt lat="49.849040" lon="24.039997">
        <ele>381.305916</ele>
        <time>2019-06-08T08:39:52.000Z</time>
      </trkpt>
      <trkpt lat="49.848972" lon="24.040163">
        <ele>379.967493</ele>
        <time>2019-06-08T08:39:56.000Z</time>
      </trkpt>
      <trkpt lat="49.848900" lon="24.040308">
        <ele>378.904457</ele>
        <time>2019-06-08T08:39:58.000Z</time>
      </trkpt>
      <trkpt lat="49.848810" lon="24.040420">
        <ele>378.367328</ele>
        <time>2019-06-08T08:40:00.000Z</time>
      </trkpt>
      <trkpt lat="49.848690" lon="24.040543">
        <ele>377.697778</ele>
        <time>2019-06-08T08:40:02.000Z</time>
      </trkpt>
      <trkpt lat="49.848583" lon="24.040653">
        <ele>377.100223</ele>
        <time>2019-06-08T08:40:04.000Z</time>
      </trkpt>
      <trkpt lat="49.848476" lon="24.040766">
        <ele>376.497646</ele>
        <time>2019-06-08T08:40:06.000Z</time>
      </trkpt>
      <trkpt lat="49.848423" lon="24.040900">
        <ele>376.025815</ele>
        <time>2019-06-08T08:40:08.000Z</time>
      </trkpt>
      <trkpt lat="49.848400" lon="24.041040">
        <ele>375.592186</ele>
        <time>2019-06-08T08:40:10.000Z</time>
      </trkpt>
      <trkpt lat="49.848320" lon="24.041159">
        <ele>375.076198</ele>
        <time>2019-06-08T08:40:13.000Z</time>
      </trkpt>
      <trkpt lat="49.848225" lon="24.041252">
        <ele>374.553261</ele>
        <time>2019-06-08T08:40:17.000Z</time>
      </trkpt>
      <trkpt lat="49.848140" lon="24.041311">
        <ele>374.119782</ele>
        <time>2019-06-08T08:40:21.000Z</time>
      </trkpt>
      <trkpt lat="49.848050" lon="24.041365">
        <ele>373.670590</ele>
        <time>2019-06-08T08:40:26.000Z</time>
      </trkpt>
      <trkpt lat="49.847960" lon="24.041428">
        <ele>373.210960</ele>
        <time>2019-06-08T08:40:30.000Z</time>
      </trkpt>
      <trkpt lat="49.847866" lon="24.041508">
        <ele>372.711853</ele>
        <time>2019-06-08T08:40:35.000Z</time>
      </trkpt>
      <trkpt lat="49.847770" lon="24.041595">
        <ele>372.194289</ele>
        <time>2019-06-08T08:40:40.000Z</time>
      </trkpt>
      <trkpt lat="49.847670" lon="24.041650">
        <ele>371.700403</ele>
        <time>2019-06-08T08:40:44.000Z</time>
      </trkpt>
      <trkpt lat="49.847626" lon="24.041773">
        <ele>371.278211</ele>
        <time>2019-06-08T08:46:58.000Z</time>
      </trkpt>
      <trkpt lat="49.847664" lon="24.041977">
        <ele>370.674793</ele>
        <time>2019-06-08T08:47:36.000Z</time>
      </trkpt>
      <trkpt lat="49.847650" lon="24.042120">
        <ele>370.658536</ele>
        <time>2019-06-08T08:47:48.000Z</time>
      </trkpt>
      <trkpt lat="49.847640" lon="24.042263">
        <ele>370.642369</ele>
        <time>2019-06-08T08:47:55.000Z</time>
      </trkpt>
      <trkpt lat="49.847640" lon="24.042404">
        <ele>370.626522</ele>
        <time>2019-06-08T08:47:59.000Z</time>
      </trkpt>
      <trkpt lat="49.847622" lon="24.042560">
        <ele>370.608709</ele>
        <time>2019-06-08T08:48:04.000Z</time>
      </trkpt>
      <trkpt lat="49.847595" lon="24.042698">
        <ele>370.592500</ele>
        <time>2019-06-08T08:48:08.000Z</time>
      </trkpt>
      <trkpt lat="49.847588" lon="24.042850">
        <ele>370.575373</ele>
        <time>2019-06-08T08:48:12.000Z</time>
      </trkpt>
      <trkpt lat="49.847580" lon="24.043001">
        <ele>370.558344</ele>
        <time>2019-06-08T08:48:16.000Z</time>
      </trkpt>
      <trkpt lat="49.847584" lon="24.043142">
        <ele>370.542481</ele>
        <time>2019-06-08T08:48:20.000Z</time>
      </trkpt>
      <trkpt lat="49.847600" lon="24.043316">
        <ele>370.522726</ele>
        <time>2019-06-08T08:48:26.000Z</time>
      </trkpt>
      <trkpt lat="49.847620" lon="24.043476">
        <ele>370.504408</ele>
        <time>2019-06-08T08:48:31.000Z</time>
      </trkpt>
      <trkpt lat="49.847650" lon="24.043610">
        <ele>370.488465</ele>
        <time>2019-06-08T08:48:37.000Z</time>
      </trkpt>
      <trkpt lat="49.847687" lon="24.043760">
        <ele>370.470414</ele>
        <time>2019-06-08T08:48:55.000Z</time>
      </trkpt>
      <trkpt lat="49.847725" lon="24.043890">
        <ele>370.454371</ele>
        <time>2019-06-08T08:48:59.000Z</time>
      </trkpt>
      <trkpt lat="49.847770" lon="24.044050">
        <ele>370.434752</ele>
        <time>2019-06-08T08:49:03.000Z</time>
      </trkpt>
      <trkpt lat="49.847797" lon="24.044199">
        <ele>370.417356</ele>
        <time>2019-06-08T08:49:07.000Z</time>
      </trkpt>
      <trkpt lat="49.847805" lon="24.044352">
        <ele>370.400103</ele>
        <time>2019-06-08T08:49:10.000Z</time>
      </trkpt>
      <trkpt lat="49.847813" lon="24.044508">
        <ele>370.382514</ele>
        <time>2019-06-08T08:49:13.000Z</time>
      </trkpt>
      <trkpt lat="49.847805" lon="24.044674">
        <ele>370.363805</ele>
        <time>2019-06-08T08:49:16.000Z</time>
      </trkpt>
      <trkpt lat="49.847810" lon="24.044847">
        <ele>370.663877</ele>
        <time>2019-06-08T08:49:19.000Z</time>
      </trkpt>
      <trkpt lat="49.847800" lon="24.045034">
        <ele>371.011855</ele>
        <time>2019-06-08T08:49:22.000Z</time>
      </trkpt>
      <trkpt lat="49.847800" lon="24.045198">
        <ele>371.315990</ele>
        <time>2019-06-08T08:49:25.000Z</time>
      </trkpt>
      <trkpt lat="49.847770" lon="24.045336">
        <ele>371.586061</ele>
        <time>2019-06-08T08:49:28.000Z</time>
      </trkpt>
      <trkpt lat="49.847736" lon="24.045470">
        <ele>371.853108</ele>
        <time>2019-06-08T08:49:31.000Z</time>
      </trkpt>
      <trkpt lat="49.847690" lon="24.045605">
        <ele>372.136268</ele>
        <time>2019-06-08T08:49:34.000Z</time>
      </trkpt>
      <trkpt lat="49.847640" lon="24.045732">
        <ele>372.412216</ele>
        <time>2019-06-08T08:49:37.000Z</time>
      </trkpt>
      <trkpt lat="49.847580" lon="24.045849">
        <ele>372.689443</ele>
        <time>2019-06-08T08:49:40.000Z</time>
      </trkpt>
      <trkpt lat="49.847496" lon="24.045948">
        <ele>372.992871</ele>
        <time>2019-06-08T08:49:43.000Z</time>
      </trkpt>
      <trkpt lat="49.847412" lon="24.046045">
        <ele>373.294069</ele>
        <time>2019-06-08T08:49:46.000Z</time>
      </trkpt>
      <trkpt lat="49.847310" lon="24.046118">
        <ele>373.617149</ele>
        <time>2019-06-08T08:49:49.000Z</time>
      </trkpt>
      <trkpt lat="49.847214" lon="24.046186">
        <ele>373.920678</ele>
        <time>2019-06-08T08:49:52.000Z</time>
      </trkpt>
      <trkpt lat="49.847126" lon="24.046263">
        <ele>374.211268</ele>
        <time>2019-06-08T08:49:55.000Z</time>
      </trkpt>
      <trkpt lat="49.847020" lon="24.046314">
        <ele>374.530455</ele>
        <time>2019-06-08T08:49:59.000Z</time>
      </trkpt>
      <trkpt lat="49.846916" lon="24.046320">
        <ele>374.829763</ele>
        <time>2019-06-08T08:50:04.000Z</time>
      </trkpt>
      <trkpt lat="49.846813" lon="24.046300">
        <ele>375.128300</ele>
        <time>2019-06-08T08:50:09.000Z</time>
      </trkpt>
      <trkpt lat="49.846714" lon="24.046340">
        <ele>375.422526</ele>
        <time>2019-06-08T08:50:15.000Z</time>
      </trkpt>
      <trkpt lat="49.846620" lon="24.046415">
        <ele>375.695357</ele>
        <time>2019-06-08T08:50:20.000Z</time>
      </trkpt>
      <trkpt lat="49.846550" lon="24.046507">
        <ele>375.916180</ele>
        <time>2019-06-08T08:50:25.000Z</time>
      </trkpt>
      <trkpt lat="49.846470" lon="24.046576">
        <ele>376.136480</ele>
        <time>2019-06-08T08:50:29.000Z</time>
      </trkpt>
      <trkpt lat="49.846382" lon="24.046616">
        <ele>376.357169</ele>
        <time>2019-06-08T08:50:34.000Z</time>
      </trkpt>
      <trkpt lat="49.846294" lon="24.046675">
        <ele>376.587894</ele>
        <time>2019-06-08T08:50:39.000Z</time>
      </trkpt>
      <trkpt lat="49.846203" lon="24.046741">
        <ele>376.829660</ele>
        <time>2019-06-08T08:50:44.000Z</time>
      </trkpt>
      <trkpt lat="49.846110" lon="24.046800">
        <ele>377.071477</ele>
        <time>2019-06-08T08:50:48.000Z</time>
      </trkpt>
      <trkpt lat="49.846020" lon="24.046886">
        <ele>377.325886</ele>
        <time>2019-06-08T08:50:52.000Z</time>
      </trkpt>
      <trkpt lat="49.845950" lon="24.046980">
        <ele>377.548729</ele>
        <time>2019-06-08T08:50:55.000Z</time>
      </trkpt>
      <trkpt lat="49.845898" lon="24.047108">
        <ele>377.783502</ele>
        <time>2019-06-08T08:50:59.000Z</time>
      </trkpt>
      <trkpt lat="49.845833" lon="24.047232">
        <ele>378.031494</ele>
        <time>2019-06-08T08:51:03.000Z</time>
      </trkpt>
      <trkpt lat="49.845740" lon="24.047298">
        <ele>378.277629</ele>
        <time>2019-06-08T08:51:06.000Z</time>
      </trkpt>
      <trkpt lat="49.845670" lon="24.047380">
        <ele>378.488752</ele>
        <time>2019-06-08T08:51:09.000Z</time>
      </trkpt>
      <trkpt lat="49.845585" lon="24.047495">
        <ele>378.760220</ele>
        <time>2019-06-08T08:51:13.000Z</time>
      </trkpt>
      <trkpt lat="49.845512" lon="24.047600">
        <ele>378.999836</ele>
        <time>2019-06-08T08:51:16.000Z</time>
      </trkpt>
      <trkpt lat="49.845440" lon="24.047737">
        <ele>379.274110</ele>
        <time>2019-06-08T08:51:19.000Z</time>
      </trkpt>
      <trkpt lat="49.845383" lon="24.047876">
        <ele>379.529745</ele>
        <time>2019-06-08T08:51:22.000Z</time>
      </trkpt>
      <trkpt lat="49.845306" lon="24.048008">
        <ele>379.805973</ele>
        <time>2019-06-08T08:51:26.000Z</time>
      </trkpt>
      <trkpt lat="49.845253" lon="24.048150">
        <ele>379.914413</ele>
        <time>2019-06-08T08:51:31.000Z</time>
      </trkpt>
      <trkpt lat="49.845203" lon="24.048285">
        <ele>379.976347</ele>
        <time>2019-06-08T08:51:36.000Z</time>
      </trkpt>
      <trkpt lat="49.845142" lon="24.048412">
        <ele>380.039346</ele>
        <time>2019-06-08T08:51:41.000Z</time>
      </trkpt>
      <trkpt lat="49.845097" lon="24.048569">
        <ele>380.107697</ele>
        <time>2019-06-08T08:51:48.000Z</time>
      </trkpt>
      <trkpt lat="49.845043" lon="24.048698">
        <ele>380.168881</ele>
        <time>2019-06-08T08:51:52.000Z</time>
      </trkpt>
      <trkpt lat="49.844990" lon="24.048847">
        <ele>380.236577</ele>
        <time>2019-06-08T08:51:56.000Z</time>
      </trkpt>
      <trkpt lat="49.844944" lon="24.048996">
        <ele>380.302297</ele>
        <time>2019-06-08T08:52:01.000Z</time>
      </trkpt>
      <trkpt lat="49.844910" lon="24.049152">
        <ele>380.367807</ele>
        <time>2019-06-08T08:52:06.000Z</time>
      </trkpt>
      <trkpt lat="49.844913" lon="24.049318">
        <ele>380.433872</ele>
        <time>2019-06-08T08:52:13.000Z</time>
      </trkpt>
      <trkpt lat="49.844940" lon="24.049452">
        <ele>380.489723</ele>
        <time>2019-06-08T08:52:19.000Z</time>
      </trkpt>
      <trkpt lat="49.844990" lon="24.049587">
        <ele>380.551658</ele>
        <time>2019-06-08T08:52:22.000Z</time>
      </trkpt>
      <trkpt lat="49.845010" lon="24.049734">
        <ele>380.611426</ele>
        <time>2019-06-08T08:52:39.000Z</time>
      </trkpt>
      <trkpt lat="49.845043" lon="24.049870">
        <ele>380.669234</ele>
        <time>2019-06-08T08:53:04.000Z</time>
      </trkpt>
      <trkpt lat="49.845140" lon="24.049936">
        <ele>380.734583</ele>
        <time>2019-06-08T08:53:08.000Z</time>
      </trkpt>
      <trkpt lat="49.845240" lon="24.049925">
        <ele>380.796430</ele>
        <time>2019-06-08T08:53:12.000Z</time>
      </trkpt>
      <trkpt lat="49.845345" lon="24.049902">
        <ele>380.861850</ele>
        <time>2019-06-08T08:53:18.000Z</time>
      </trkpt>
      <trkpt lat="49.845420" lon="24.049974">
        <ele>380.916268</ele>
        <time>2019-06-08T08:53:24.000Z</time>
      </trkpt>
      <trkpt lat="49.845463" lon="24.050108">
        <ele>380.975481</ele>
        <time>2019-06-08T08:53:29.000Z</time>
      </trkpt>
      <trkpt lat="49.845543" lon="24.050224">
        <ele>381.032696</ele>
        <time>2019-06-08T08:53:33.000Z</time>
      </trkpt>
      <trkpt lat="49.845620" lon="24.050327">
        <ele>381.085819</ele>
        <time>2019-06-08T08:53:37.000Z</time>
      </trkpt>
      <trkpt lat="49.845650" lon="24.050457">
        <ele>381.132332</ele>
        <time>2019-06-08T08:53:41.000Z</time>
      </trkpt>
      <trkpt lat="49.845703" lon="24.050589">
        <ele>381.184714</ele>
        <time>2019-06-08T08:53:54.000Z</time>
      </trkpt>
      <trkpt lat="49.845783" lon="24.050774">
        <ele>381.259751</ele>
        <time>2019-06-08T08:54:20.000Z</time>
      </trkpt>
      <trkpt lat="49.845830" lon="24.050913">
        <ele>381.312623</ele>
        <time>2019-06-08T08:54:23.000Z</time>
      </trkpt>
      <trkpt lat="49.845840" lon="24.051067">
        <ele>381.364763</ele>
        <time>2019-06-08T08:54:30.000Z</time>
      </trkpt>
      <trkpt lat="49.845882" lon="24.051205">
        <ele>381.416169</ele>
        <time>2019-06-08T08:54:34.000Z</time>
      </trkpt>
      <trkpt lat="49.845806" lon="24.051392">
        <ele>381.490631</ele>
        <time>2019-06-08T08:55:10.000Z</time>
      </trkpt>
      <trkpt lat="49.845768" lon="24.051540">
        <ele>381.544295</ele>
        <time>2019-06-08T09:00:52.000Z</time>
      </trkpt>
      <trkpt lat="49.845695" lon="24.051680">
        <ele>381.604946</ele>
        <time>2019-06-08T09:00:57.000Z</time>
      </trkpt>
      <trkpt lat="49.845642" lon="24.051826">
        <ele>381.661387</ele>
        <time>2019-06-08T09:01:03.000Z</time>
      </trkpt>
      <trkpt lat="49.845615" lon="24.051983">
        <ele>381.716125</ele>
        <time>2019-06-08T09:01:06.000Z</time>
      </trkpt>
      <trkpt lat="49.845592" lon="24.052145">
        <ele>381.772005</ele>
        <time>2019-06-08T09:01:10.000Z</time>
      </trkpt>
      <trkpt lat="49.845577" lon="24.052309">
        <ele>381.827805</ele>
        <time>2019-06-08T09:01:14.000Z</time>
      </trkpt>
      <trkpt lat="49.845540" lon="24.052443">
        <ele>381.876910</ele>
        <time>2019-06-08T09:01:17.000Z</time>
      </trkpt>
      <trkpt lat="49.845505" lon="24.052600">
        <ele>382.129319</ele>
        <time>2019-06-08T09:01:21.000Z</time>
      </trkpt>
      <trkpt lat="49.845493" lon="24.052748">
        <ele>382.683123</ele>
        <time>2019-06-08T09:01:26.000Z</time>
      </trkpt>
      <trkpt lat="49.845448" lon="24.052880">
        <ele>383.237467</ele>
        <time>2019-06-08T09:01:31.000Z</time>
      </trkpt>
      <trkpt lat="49.845394" lon="24.053010">
        <ele>383.811584</ele>
        <time>2019-06-08T09:01:40.000Z</time>
      </trkpt>
      <trkpt lat="49.845330" lon="24.053158">
        <ele>384.473175</ele>
        <time>2019-06-08T09:01:46.000Z</time>
      </trkpt>
      <trkpt lat="49.845253" lon="24.053272">
        <ele>385.086097</ele>
        <time>2019-06-08T09:01:51.000Z</time>
      </trkpt>
      <trkpt lat="49.845190" lon="24.053420">
        <ele>385.744499</ele>
        <time>2019-06-08T09:01:55.000Z</time>
      </trkpt>
      <trkpt lat="49.845120" lon="24.053522">
        <ele>386.297524</ele>
        <time>2019-06-08T09:01:59.000Z</time>
      </trkpt>
      <trkpt lat="49.845030" lon="24.053612">
        <ele>386.914088</ele>
        <time>2019-06-08T09:02:04.000Z</time>
      </trkpt>
      <trkpt lat="49.844970" lon="24.053720">
        <ele>387.443345</ele>
        <time>2019-06-08T09:02:08.000Z</time>
      </trkpt>
      <trkpt lat="49.844920" lon="24.053879">
        <ele>388.100119</ele>
        <time>2019-06-08T09:02:12.000Z</time>
      </trkpt>
      <trkpt lat="49.844887" lon="24.054022">
        <ele>388.664012</ele>
        <time>2019-06-08T09:02:16.000Z</time>
      </trkpt>
      <trkpt lat="49.844860" lon="24.054169">
        <ele>389.231490</ele>
        <time>2019-06-08T09:02:21.000Z</time>
      </trkpt>
      <trkpt lat="49.844820" lon="24.054327">
        <ele>389.861689</ele>
        <time>2019-06-08T09:02:26.000Z</time>
      </trkpt>
      <trkpt lat="49.844765" lon="24.054438">
        <ele>390.381411</ele>
        <time>2019-06-08T09:02:30.000Z</time>
      </trkpt>
      <trkpt lat="49.844696" lon="24.054565">
        <ele>390.997972</ele>
        <time>2019-06-08T09:02:35.000Z</time>
      </trkpt>
      <trkpt lat="49.844692" lon="24.054716">
        <ele>391.559070</ele>
        <time>2019-06-08T09:02:40.000Z</time>
      </trkpt>
      <trkpt lat="49.844707" lon="24.054878">
        <ele>392.166703</ele>
        <time>2019-06-08T09:02:46.000Z</time>
      </trkpt>
      <trkpt lat="49.844680" lon="24.055054">
        <ele>392.083238</ele>
        <time>2019-06-08T09:02:51.000Z</time>
      </trkpt>
      <trkpt lat="49.844660" lon="24.055218">
        <ele>391.881306</ele>
        <time>2019-06-08T09:02:55.000Z</time>
      </trkpt>
      <trkpt lat="49.844612" lon="24.055360">
        <ele>391.687336</ele>
        <time>2019-06-08T09:02:59.000Z</time>
      </trkpt>
      <trkpt lat="49.844570" lon="24.055492">
        <ele>391.509254</ele>
        <time>2019-06-08T09:03:04.000Z</time>
      </trkpt>
      <trkpt lat="49.844624" lon="24.055605">
        <ele>391.339095</ele>
        <time>2019-06-08T09:03:13.000Z</time>
      </trkpt>
      <trkpt lat="49.844723" lon="24.055622">
        <ele>391.152222</ele>
        <time>2019-06-08T09:03:20.000Z</time>
      </trkpt>
      <trkpt lat="49.844820" lon="24.055634">
        <ele>390.969659</ele>
        <time>2019-06-08T09:03:26.000Z</time>
      </trkpt>
      <trkpt lat="49.844917" lon="24.055647">
        <ele>390.786996</ele>
        <time>2019-06-08T09:03:31.000Z</time>
      </trkpt>
      <trkpt lat="49.845013" lon="24.055614">
        <ele>390.602516</ele>
        <time>2019-06-08T09:03:36.000Z</time>
      </trkpt>
      <trkpt lat="49.845135" lon="24.055574">
        <ele>390.368567</ele>
        <time>2019-06-08T09:03:40.000Z</time>
      </trkpt>
      <trkpt lat="49.845238" lon="24.055544">
        <ele>390.171947</ele>
        <time>2019-06-08T09:03:43.000Z</time>
      </trkpt>
      <trkpt lat="49.845356" lon="24.055586">
        <ele>389.944807</ele>
        <time>2019-06-08T09:03:47.000Z</time>
      </trkpt>
      <trkpt lat="49.845450" lon="24.055706">
        <ele>389.716380</ele>
        <time>2019-06-08T09:03:50.000Z</time>
      </trkpt>
      <trkpt lat="49.845520" lon="24.055805">
        <ele>389.538637</ele>
        <time>2019-06-08T09:03:52.000Z</time>
      </trkpt>
      <trkpt lat="49.845577" lon="24.055948">
        <ele>389.335248</ele>
        <time>2019-06-08T09:03:55.000Z</time>
      </trkpt>
      <trkpt lat="49.845630" lon="24.056068">
        <ele>389.159282</ele>
        <time>2019-06-08T09:04:32.000Z</time>
      </trkpt>
      <trkpt lat="49.845657" lon="24.056202">
        <ele>388.989436</ele>
        <time>2019-06-08T09:04:36.000Z</time>
      </trkpt>
      <trkpt lat="49.845676" lon="24.056337">
        <ele>388.888831</ele>
        <time>2019-06-08T09:04:40.000Z</time>
      </trkpt>
      <trkpt lat="49.845720" lon="24.056498">
        <ele>388.872657</ele>
        <time>2019-06-08T09:04:44.000Z</time>
      </trkpt>
      <trkpt lat="49.845757" lon="24.056675">
        <ele>388.855447</ele>
        <time>2019-06-08T09:04:48.000Z</time>
      </trkpt>
      <trkpt lat="49.845795" lon="24.056833">
        <ele>388.839850</ele>
        <time>2019-06-08T09:04:52.000Z</time>
      </trkpt>
      <trkpt lat="49.845802" lon="24.056978">
        <ele>388.826401</ele>
        <time>2019-06-08T09:04:56.000Z</time>
      </trkpt>
      <trkpt lat="49.845770" lon="24.057135">
        <ele>388.811172</ele>
        <time>2019-06-08T09:05:00.000Z</time>
      </trkpt>
      <trkpt lat="49.845820" lon="24.057274">
        <ele>388.796450</ele>
        <time>2019-06-08T09:05:04.000Z</time>
      </trkpt>
      <trkpt lat="49.845905" lon="24.057331">
        <ele>388.783167</ele>
        <time>2019-06-08T09:05:07.000Z</time>
      </trkpt>
      <trkpt lat="49.846004" lon="24.057405">
        <ele>388.767404</ele>
        <time>2019-06-08T09:05:10.000Z</time>
      </trkpt>
      <trkpt lat="49.846090" lon="24.057467">
        <ele>388.753801</ele>
        <time>2019-06-08T09:05:12.000Z</time>
      </trkpt>
      <trkpt lat="49.846172" lon="24.057549">
        <ele>388.739806</ele>
        <time>2019-06-08T09:05:14.000Z</time>
      </trkpt>
      <trkpt lat="49.846250" lon="24.057632">
        <ele>388.726237</ele>
        <time>2019-06-08T09:05:16.000Z</time>
      </trkpt>
      <trkpt lat="49.846317" lon="24.057734">
        <ele>388.712770</ele>
        <time>2019-06-08T09:05:19.000Z</time>
      </trkpt>
      <trkpt lat="49.846382" lon="24.057854">
        <ele>388.698275</ele>
        <time>2019-06-08T09:05:24.000Z</time>
      </trkpt>
      <trkpt lat="49.846436" lon="24.057980">
        <ele>388.684282</ele>
        <time>2019-06-08T09:05:29.000Z</time>
      </trkpt>
      <trkpt lat="49.846478" lon="24.058136">
        <ele>388.668646</ele>
        <time>2019-06-08T09:05:34.000Z</time>
      </trkpt>
      <trkpt lat="49.846540" lon="24.058277">
        <ele>388.652862</ele>
        <time>2019-06-08T09:05:39.000Z</time>
      </trkpt>
      <trkpt lat="49.846592" lon="24.058407">
        <ele>388.638712</ele>
        <time>2019-06-08T09:05:44.000Z</time>
      </trkpt>
      <trkpt lat="49.846680" lon="24.058510">
        <ele>389.699341</ele>
        <time>2019-06-08T09:05:49.000Z</time>
      </trkpt>
      <trkpt lat="49.846700" lon="24.058660">
        <ele>390.818475</ele>
        <time>2019-06-08T09:05:55.000Z</time>
      </trkpt>
      <trkpt lat="49.846664" lon="24.058800">
        <ele>391.919693</ele>
        <time>2019-06-08T09:06:01.000Z</time>
      </trkpt>
      <trkpt lat="49.846607" lon="24.058914">
        <ele>392.973673</ele>
        <time>2019-06-08T09:06:06.000Z</time>
      </trkpt>
      <trkpt lat="49.846527" lon="24.058989">
        <ele>394.032880</ele>
        <time>2019-06-08T09:06:16.000Z</time>
      </trkpt>
      <trkpt lat="49.846440" lon="24.059021">
        <ele>395.045986</ele>
        <time>2019-06-08T09:06:24.000Z</time>
      </trkpt>
      <trkpt lat="49.846348" lon="24.058979">
        <ele>396.132626</ele>
        <time>2019-06-08T09:06:32.000Z</time>
      </trkpt>
      <trkpt lat="49.846260" lon="24.058935">
        <ele>397.180260</ele>
        <time>2019-06-08T09:06:39.000Z</time>
      </trkpt>
      <trkpt lat="49.846165" lon="24.058876">
        <ele>398.339773</ele>
        <time>2019-06-08T09:06:47.000Z</time>
      </trkpt>
      <trkpt lat="49.846024" lon="24.058786">
        <ele>400.067419</ele>
        <time>2019-06-08T09:07:16.000Z</time>
      </trkpt>
      <trkpt lat="49.845930" lon="24.058777">
        <ele>401.134519</ele>
        <time>2019-06-08T09:07:32.000Z</time>
      </trkpt>
      <trkpt lat="49.845856" lon="24.058691">
        <ele>402.182301</ele>
        <time>2019-06-08T09:07:40.000Z</time>
      </trkpt>
      <trkpt lat="49.845770" lon="24.058619">
        <ele>403.289665</ele>
        <time>2019-06-08T09:07:50.000Z</time>
      </trkpt>
      <trkpt lat="49.845690" lon="24.058530">
        <ele>404.405237</ele>
        <time>2019-06-08T09:08:00.000Z</time>
      </trkpt>
      <trkpt lat="49.845646" lon="24.058340">
        <ele>405.880276</ele>
        <time>2019-06-08T09:08:25.000Z</time>
      </trkpt>
      <trkpt lat="49.845610" lon="24.058208">
        <ele>406.927444</ele>
        <time>2019-06-08T09:08:38.000Z</time>
      </trkpt>
      <trkpt lat="49.845543" lon="24.058086">
        <ele>408.098293</ele>
        <time>2019-06-08T09:08:47.000Z</time>
      </trkpt>
      <trkpt lat="49.845455" lon="24.058035">
        <ele>409.025476</ele>
        <time>2019-06-08T09:08:51.000Z</time>
      </trkpt>
      <trkpt lat="49.845352" lon="24.058002">
        <ele>409.102611</ele>
        <time>2019-06-08T09:08:56.000Z</time>
      </trkpt>
      <trkpt lat="49.845264" lon="24.057955">
        <ele>409.170869</ele>
        <time>2019-06-08T09:09:01.000Z</time>
      </trkpt>
      <trkpt lat="49.845173" lon="24.057930">
        <ele>409.238646</ele>
        <time>2019-06-08T09:09:09.000Z</time>
      </trkpt>
      <trkpt lat="49.845060" lon="24.057901">
        <ele>409.322646</ele>
        <time>2019-06-08T09:09:35.000Z</time>
      </trkpt>
      <trkpt lat="49.844967" lon="24.057888">
        <ele>409.391128</ele>
        <time>2019-06-08T09:09:41.000Z</time>
      </trkpt>
      <trkpt lat="49.844875" lon="24.057867">
        <ele>409.459327</ele>
        <time>2019-06-08T09:09:46.000Z</time>
      </trkpt>
      <trkpt lat="49.844780" lon="24.057863">
        <ele>409.529024</ele>
        <time>2019-06-08T09:09:53.000Z</time>
      </trkpt>
      <trkpt lat="49.844685" lon="24.057854">
        <ele>409.598826</ele>
        <time>2019-06-08T09:10:44.000Z</time>
      </trkpt>
      <trkpt lat="49.844574" lon="24.057800">
        <ele>409.684143</ele>
        <time>2019-06-08T09:10:49.000Z</time>
      </trkpt>
      <trkpt lat="49.844482" lon="24.057753">
        <ele>409.755182</ele>
        <time>2019-06-08T09:10:53.000Z</time>
      </trkpt>
      <trkpt lat="49.844376" lon="24.057740">
        <ele>409.833164</ele>
        <time>2019-06-08T09:10:57.000Z</time>
      </trkpt>
      <trkpt lat="49.844280" lon="24.057781">
        <ele>409.906190</ele>
        <time>2019-06-08T09:11:02.000Z</time>
      </trkpt>
      <trkpt lat="49.844240" lon="24.057905">
        <ele>409.971763</ele>
        <time>2019-06-08T09:11:06.000Z</time>
      </trkpt>
      <trkpt lat="49.844162" lon="24.058022">
        <ele>410.051350</ele>
        <time>2019-06-08T09:11:10.000Z</time>
      </trkpt>
      <trkpt lat="49.844070" lon="24.058134">
        <ele>410.137130</ele>
        <time>2019-06-08T09:11:14.000Z</time>
      </trkpt>
      <trkpt lat="49.843990" lon="24.058239">
        <ele>410.213995</ele>
        <time>2019-06-08T09:11:17.000Z</time>
      </trkpt>
      <trkpt lat="49.843933" lon="24.058378">
        <ele>410.291899</ele>
        <time>2019-06-08T09:11:20.000Z</time>
      </trkpt>
      <trkpt lat="49.843890" lon="24.058550">
        <ele>410.095095</ele>
        <time>2019-06-08T09:11:23.000Z</time>
      </trkpt>
      <trkpt lat="49.843853" lon="24.058733">
        <ele>409.601121</ele>
        <time>2019-06-08T09:11:26.000Z</time>
      </trkpt>
      <trkpt lat="49.843807" lon="24.058918">
        <ele>409.090426</ele>
        <time>2019-06-08T09:11:29.000Z</time>
      </trkpt>
      <trkpt lat="49.843777" lon="24.059053">
        <ele>408.722642</ele>
        <time>2019-06-08T09:11:32.000Z</time>
      </trkpt>
      <trkpt lat="49.843750" lon="24.059217">
        <ele>408.286681</ele>
        <time>2019-06-08T09:11:36.000Z</time>
      </trkpt>
      <trkpt lat="49.843723" lon="24.059355">
        <ele>407.915237</ele>
        <time>2019-06-08T09:11:39.000Z</time>
      </trkpt>
      <trkpt lat="49.843700" lon="24.059500">
        <ele>407.530630</ele>
        <time>2019-06-08T09:11:42.000Z</time>
      </trkpt>
      <trkpt lat="49.843662" lon="24.059660">
        <ele>407.091460</ele>
        <time>2019-06-08T09:11:45.000Z</time>
      </trkpt>
      <trkpt lat="49.843616" lon="24.059818">
        <ele>406.644949</ele>
        <time>2019-06-08T09:11:48.000Z</time>
      </trkpt>
      <trkpt lat="49.843575" lon="24.059954">
        <ele>406.258267</ele>
        <time>2019-06-08T09:11:51.000Z</time>
      </trkpt>
      <trkpt lat="49.843468" lon="24.060043">
        <ele>405.773300</ele>
        <time>2019-06-08T09:11:55.000Z</time>
      </trkpt>
      <trkpt lat="49.843372" lon="24.060064">
        <ele>405.386071</ele>
        <time>2019-06-08T09:11:58.000Z</time>
      </trkpt>
      <trkpt lat="49.843280" lon="24.060070">
        <ele>405.018289</ele>
        <time>2019-06-08T09:12:01.000Z</time>
      </trkpt>
      <trkpt lat="49.843178" lon="24.060091">
        <ele>404.607317</ele>
        <time>2019-06-08T09:12:04.000Z</time>
      </trkpt>
      <trkpt lat="49.843082" lon="24.060102">
        <ele>404.222839</ele>
        <time>2019-06-08T09:12:07.000Z</time>
      </trkpt>
      <trkpt lat="49.842983" lon="24.060116">
        <ele>403.825783</ele>
        <time>2019-06-08T09:12:10.000Z</time>
      </trkpt>
      <trkpt lat="49.842865" lon="24.060106">
        <ele>403.353776</ele>
        <time>2019-06-08T09:12:14.000Z</time>
      </trkpt>
      <trkpt lat="49.842770" lon="24.060118">
        <ele>403.046670</ele>
        <time>2019-06-08T09:12:17.000Z</time>
      </trkpt>
      <trkpt lat="49.842740" lon="24.060265">
        <ele>402.813669</ele>
        <time>2019-06-08T09:12:20.000Z</time>
      </trkpt>
      <trkpt lat="49.842760" lon="24.060417">
        <ele>402.579238</ele>
        <time>2019-06-08T09:12:23.000Z</time>
      </trkpt>
      <trkpt lat="49.842766" lon="24.060572">
        <ele>402.344584</ele>
        <time>2019-06-08T09:12:27.000Z</time>
      </trkpt>
      <trkpt lat="49.842770" lon="24.060715">
        <ele>402.128282</ele>
        <time>2019-06-08T09:12:31.000Z</time>
      </trkpt>
      <trkpt lat="49.842773" lon="24.060880">
        <ele>401.878839</ele>
        <time>2019-06-08T09:12:36.000Z</time>
      </trkpt>
      <trkpt lat="49.842766" lon="24.061028">
        <ele>401.654585</ele>
        <time>2019-06-08T09:12:41.000Z</time>
      </trkpt>
      <trkpt lat="49.842747" lon="24.061186">
        <ele>401.411703</ele>
        <time>2019-06-08T09:12:47.000Z</time>
      </trkpt>
      <trkpt lat="49.842747" lon="24.061325">
        <ele>401.201649</ele>
        <time>2019-06-08T09:12:51.000Z</time>
      </trkpt>
      <trkpt lat="49.842743" lon="24.061490">
        <ele>400.952129</ele>
        <time>2019-06-08T09:12:55.000Z</time>
      </trkpt>
      <trkpt lat="49.842730" lon="24.061634">
        <ele>400.732398</ele>
        <time>2019-06-08T09:12:59.000Z</time>
      </trkpt>
      <trkpt lat="49.842724" lon="24.061794">
        <ele>400.490201</ele>
        <time>2019-06-08T09:13:03.000Z</time>
      </trkpt>
      <trkpt lat="49.842712" lon="24.061941">
        <ele>400.266285</ele>
        <time>2019-06-08T09:13:07.000Z</time>
      </trkpt>
      <trkpt lat="49.842693" lon="24.062078">
        <ele>400.054520</ele>
        <time>2019-06-08T09:13:10.000Z</time>
      </trkpt>
      <trkpt lat="49.842690" lon="24.062244">
        <ele>399.803566</ele>
        <time>2019-06-08T09:13:14.000Z</time>
      </trkpt>
      <trkpt lat="49.842693" lon="24.062390">
        <ele>399.582822</ele>
        <time>2019-06-08T09:13:17.000Z</time>
      </trkpt>
      <trkpt lat="49.842686" lon="24.062586">
        <ele>399.286177</ele>
        <time>2019-06-08T09:13:20.000Z</time>
      </trkpt>
      <trkpt lat="49.842678" lon="24.062725">
        <ele>399.075289</ele>
        <time>2019-06-08T09:13:22.000Z</time>
      </trkpt>
      <trkpt lat="49.842678" lon="24.062868">
        <ele>398.809807</ele>
        <time>2019-06-08T09:13:24.000Z</time>
      </trkpt>
      <trkpt lat="49.842680" lon="24.063019">
        <ele>398.435477</ele>
        <time>2019-06-08T09:13:26.000Z</time>
      </trkpt>
      <trkpt lat="49.842686" lon="24.063160">
        <ele>398.085251</ele>
        <time>2019-06-08T09:13:28.000Z</time>
      </trkpt>
      <trkpt lat="49.842754" lon="24.063260">
        <ele>397.725072</ele>
        <time>2019-06-08T09:13:33.000Z</time>
      </trkpt>
      <trkpt lat="49.842834" lon="24.063183">
        <ele>397.363196</ele>
        <time>2019-06-08T09:14:16.000Z</time>
      </trkpt>
      <trkpt lat="49.842990" lon="24.063074">
        <ele>396.705591</ele>
        <time>2019-06-08T09:15:55.000Z</time>
      </trkpt>
      <trkpt lat="49.843080" lon="24.063011">
        <ele>396.326086</ele>
        <time>2019-06-08T09:20:35.000Z</time>
      </trkpt>
      <trkpt lat="49.843170" lon="24.062992">
        <ele>395.977001</ele>
        <time>2019-06-08T09:20:48.000Z</time>
      </trkpt>
      <trkpt lat="49.843185" lon="24.063131">
        <ele>395.627705</ele>
        <time>2019-06-08T09:21:07.000Z</time>
      </trkpt>
      <trkpt lat="49.843147" lon="24.063265">
        <ele>395.264899</ele>
        <time>2019-06-08T09:21:53.000Z</time>
      </trkpt>
      <trkpt lat="49.843174" lon="24.063406">
        <ele>394.900355</ele>
        <time>2019-06-08T09:23:54.000Z</time>
      </trkpt>
      <trkpt lat="49.843170" lon="24.063260">
        <ele>394.538173</ele>
        <time>2019-06-08T09:25:32.000Z</time>
      </trkpt>
      <trkpt lat="49.843086" lon="24.063313">
        <ele>394.189637</ele>
        <time>2019-06-08T09:26:30.000Z</time>
      </trkpt>
      <trkpt lat="49.842926" lon="24.063547">
        <ele>393.344364</ele>
        <time>2019-06-08T09:27:15.000Z</time>
      </trkpt>
      <trkpt lat="49.843044" lon="24.063763">
        <ele>392.642747</ele>
        <time>2019-06-08T09:30:25.000Z</time>
      </trkpt>
      <trkpt lat="49.843060" lon="24.063900">
        <ele>392.297674</ele>
        <time>2019-06-08T09:31:15.000Z</time>
      </trkpt>
      <trkpt lat="49.843010" lon="24.063755">
        <ele>391.837347</ele>
        <time>2019-06-08T09:36:54.000Z</time>
      </trkpt>
      <trkpt lat="49.842987" lon="24.063614">
        <ele>391.334327</ele>
        <time>2019-06-08T09:38:54.000Z</time>
      </trkpt>
      <trkpt lat="49.843033" lon="24.063486">
        <ele>390.827528</ele>
        <time>2019-06-08T09:39:23.000Z</time>
      </trkpt>
      <trkpt lat="49.843100" lon="24.063390">
        <ele>390.338287</ele>
        <time>2019-06-08T09:39:39.000Z</time>
      </trkpt>
      <trkpt lat="49.843170" lon="24.063293">
        <ele>389.834811</ele>
        <time>2019-06-08T09:40:03.000Z</time>
      </trkpt>
      <trkpt lat="49.843246" lon="24.063179">
        <ele>389.267722</ele>
        <time>2019-06-08T09:40:21.000Z</time>
      </trkpt>
      <trkpt lat="49.843372" lon="24.063060">
        <ele>388.476501</ele>
        <time>2019-06-08T09:41:14.000Z</time>
      </trkpt>
      <trkpt lat="49.843346" lon="24.063198">
        <ele>387.979267</ele>
        <time>2019-06-08T09:45:05.000Z</time>
      </trkpt>
      <trkpt lat="49.843410" lon="24.063318">
        <ele>387.440693</ele>
        <time>2019-06-08T09:45:29.000Z</time>
      </trkpt>
      <trkpt lat="49.843380" lon="24.063465">
        <ele>386.907434</ele>
        <time>2019-06-08T09:45:57.000Z</time>
      </trkpt>
      <trkpt lat="49.843395" lon="24.063608">
        <ele>386.406359</ele>
        <time>2019-06-08T09:46:05.000Z</time>
      </trkpt>
      <trkpt lat="49.843410" lon="24.063763">
        <ele>385.864280</ele>
        <time>2019-06-08T09:46:16.000Z</time>
      </trkpt>
      <trkpt lat="49.843422" lon="24.063902">
        <ele>385.379251</ele>
        <time>2019-06-08T09:46:25.000Z</time>
      </trkpt>
      <trkpt lat="49.843506" lon="24.063967">
        <ele>384.875774</ele>
        <time>2019-06-08T09:46:43.000Z</time>
      </trkpt>
      <trkpt lat="49.843647" lon="24.063900">
        <ele>384.084867</ele>
        <time>2019-06-08T09:48:44.000Z</time>
      </trkpt>
      <trkpt lat="49.843600" lon="24.064045">
        <ele>383.523593</ele>
        <time>2019-06-08T09:48:59.000Z</time>
      </trkpt>
      <trkpt lat="49.843784" lon="24.064068">
        <ele>382.533578</ele>
        <time>2019-06-08T09:51:33.000Z</time>
      </trkpt>
      <trkpt lat="49.843838" lon="24.064198">
        <ele>382.243069</ele>
        <time>2019-06-08T09:52:13.000Z</time>
      </trkpt>
      <trkpt lat="49.843937" lon="24.064133">
        <ele>382.038585</ele>
        <time>2019-06-08T09:52:17.000Z</time>
      </trkpt>
      <trkpt lat="49.843845" lon="24.064074">
        <ele>381.849224</ele>
        <time>2019-06-08T09:52:45.000Z</time>
      </trkpt>
      <trkpt lat="49.843760" lon="24.064144">
        <ele>381.666166</ele>
        <time>2019-06-08T09:52:52.000Z</time>
      </trkpt>
      <trkpt lat="49.843674" lon="24.064196">
        <ele>381.490596</ele>
        <time>2019-06-08T09:53:58.000Z</time>
      </trkpt>
      <trkpt lat="49.843662" lon="24.064050">
        <ele>381.310067</ele>
        <time>2019-06-08T09:54:06.000Z</time>
      </trkpt>
      <trkpt lat="49.843655" lon="24.063904">
        <ele>381.130493</ele>
        <time>2019-06-08T09:54:18.000Z</time>
      </trkpt>
      <trkpt lat="49.843520" lon="24.063822">
        <ele>380.854722</ele>
        <time>2019-06-08T09:55:27.000Z</time>
      </trkpt>
      <trkpt lat="49.843464" lon="24.063932">
        <ele>380.682822</ele>
        <time>2019-06-08T09:55:34.000Z</time>
      </trkpt>
      <trkpt lat="49.843414" lon="24.064060">
        <ele>380.499263</ele>
        <time>2019-06-08T09:55:43.000Z</time>
      </trkpt>
      <trkpt lat="49.843370" lon="24.064190">
        <ele>380.319179</ele>
        <time>2019-06-08T09:55:52.000Z</time>
      </trkpt>
      <trkpt lat="49.843365" lon="24.064346">
        <ele>380.127596</ele>
        <time>2019-06-08T09:56:03.000Z</time>
      </trkpt>
      <trkpt lat="49.843384" lon="24.064486">
        <ele>379.952113</ele>
        <time>2019-06-08T09:56:11.000Z</time>
      </trkpt>
      <trkpt lat="49.843437" lon="24.064617">
        <ele>379.762427</ele>
        <time>2019-06-08T09:56:21.000Z</time>
      </trkpt>
      <trkpt lat="49.843490" lon="24.064493">
        <ele>379.579957</ele>
        <time>2019-06-08T09:58:32.000Z</time>
      </trkpt>
      <trkpt lat="49.843575" lon="24.064560">
        <ele>379.398596</ele>
        <time>2019-06-08T09:58:35.000Z</time>
      </trkpt>
      <trkpt lat="49.843304" lon="24.065096">
        <ele>378.305645</ele>
        <time>2019-06-08T09:58:48.000Z</time>
      </trkpt>
      <trkpt lat="49.843426" lon="24.065144">
        <ele>377.909393</ele>
        <time>2019-06-08T09:58:55.000Z</time>
      </trkpt>
      <trkpt lat="49.843330" lon="24.065056">
        <ele>377.558308</ele>
        <time>2019-06-08T09:58:59.000Z</time>
      </trkpt>
      <trkpt lat="49.843216" lon="24.064932">
        <ele>377.119921</ele>
        <time>2019-06-08T09:59:03.000Z</time>
      </trkpt>
      <trkpt lat="49.843310" lon="24.064857">
        <ele>376.787113</ele>
        <time>2019-06-08T09:59:10.000Z</time>
      </trkpt>
      <trkpt lat="49.843422" lon="24.064901">
        <ele>376.423374</ele>
        <time>2019-06-08T09:59:14.000Z</time>
      </trkpt>
      <trkpt lat="49.843487" lon="24.064800">
        <ele>376.133682</ele>
        <time>2019-06-08T09:59:30.000Z</time>
      </trkpt>
      <trkpt lat="49.843360" lon="24.064777">
        <ele>375.731142</ele>
        <time>2019-06-08T09:59:34.000Z</time>
      </trkpt>
      <trkpt lat="49.843280" lon="24.064695">
        <ele>375.429237</ele>
        <time>2019-06-08T09:59:39.000Z</time>
      </trkpt>
      <trkpt lat="49.843210" lon="24.064777">
        <ele>375.153048</ele>
        <time>2019-06-08T09:59:48.000Z</time>
      </trkpt>
      <trkpt lat="49.843323" lon="24.064718">
        <ele>374.777676</ele>
        <time>2019-06-08T09:59:52.000Z</time>
      </trkpt>
      <trkpt lat="49.843426" lon="24.064709">
        <ele>374.452895</ele>
        <time>2019-06-08T09:59:54.000Z</time>
      </trkpt>
      <trkpt lat="49.843480" lon="24.064590">
        <ele>374.157481</ele>
        <time>2019-06-08T10:00:01.000Z</time>
      </trkpt>
      <trkpt lat="49.843440" lon="24.064465">
        <ele>373.874178</ele>
        <time>2019-06-08T10:00:13.000Z</time>
      </trkpt>
      <trkpt lat="49.843550" lon="24.064440">
        <ele>373.524175</ele>
        <time>2019-06-08T10:00:33.000Z</time>
      </trkpt>
      <trkpt lat="49.843643" lon="24.064432">
        <ele>373.264395</ele>
        <time>2019-06-08T10:00:42.000Z</time>
      </trkpt>
      <trkpt lat="49.843550" lon="24.064500">
        <ele>373.113150</ele>
        <time>2019-06-08T10:01:04.000Z</time>
      </trkpt>
      <trkpt lat="49.843636" lon="24.064420">
        <ele>372.965631</ele>
        <time>2019-06-08T10:01:26.000Z</time>
      </trkpt>
      <trkpt lat="49.843550" lon="24.064480">
        <ele>372.826915</ele>
        <time>2019-06-08T10:01:55.000Z</time>
      </trkpt>
      <trkpt lat="49.843660" lon="24.064556">
        <ele>372.649775</ele>
        <time>2019-06-08T10:02:53.000Z</time>
      </trkpt>
      <trkpt lat="49.843570" lon="24.064620">
        <ele>372.504132</ele>
        <time>2019-06-08T10:03:28.000Z</time>
      </trkpt>
      <trkpt lat="49.843594" lon="24.064920">
        <ele>372.217374</ele>
        <time>2019-06-08T10:03:59.000Z</time>
      </trkpt>
      <trkpt lat="49.843502" lon="24.064820">
        <ele>372.052110</ele>
        <time>2019-06-08T10:04:07.000Z</time>
      </trkpt>
      <trkpt lat="49.843410" lon="24.064772">
        <ele>371.909327</ele>
        <time>2019-06-08T10:04:11.000Z</time>
      </trkpt>
      <trkpt lat="49.843490" lon="24.064674">
        <ele>371.759361</ele>
        <time>2019-06-08T10:04:22.000Z</time>
      </trkpt>
      <trkpt lat="49.843540" lon="24.064810">
        <ele>371.610861</ele>
        <time>2019-06-08T10:04:30.000Z</time>
      </trkpt>
      <trkpt lat="49.843636" lon="24.064764">
        <ele>371.463060</ele>
        <time>2019-06-08T10:04:47.000Z</time>
      </trkpt>
      <trkpt lat="49.843548" lon="24.064623">
        <ele>371.276928</ele>
        <time>2019-06-08T10:05:16.000Z</time>
      </trkpt>
      <trkpt lat="49.843452" lon="24.064617">
        <ele>371.135601</ele>
        <time>2019-06-08T10:06:09.000Z</time>
      </trkpt>
      <trkpt lat="49.843464" lon="24.064455">
        <ele>370.980919</ele>
        <time>2019-06-08T10:06:31.000Z</time>
      </trkpt>
      <trkpt lat="49.843580" lon="24.064460">
        <ele>370.810221</ele>
        <time>2019-06-08T10:06:34.000Z</time>
      </trkpt>
      <trkpt lat="49.843490" lon="24.064554">
        <ele>370.650606</ele>
        <time>2019-06-08T10:07:05.000Z</time>
      </trkpt>
      <trkpt lat="49.843422" lon="24.064650">
        <ele>370.467725</ele>
        <time>2019-06-08T10:07:12.000Z</time>
      </trkpt>
      <trkpt lat="49.843388" lon="24.064785">
        <ele>370.280905</ele>
        <time>2019-06-08T10:07:22.000Z</time>
      </trkpt>
      <trkpt lat="49.843340" lon="24.064907">
        <ele>370.096684</ele>
        <time>2019-06-08T10:07:36.000Z</time>
      </trkpt>
      <trkpt lat="49.843285" lon="24.065025">
        <ele>369.909006</ele>
        <time>2019-06-08T10:07:50.000Z</time>
      </trkpt>
      <trkpt lat="49.843258" lon="24.065190">
        <ele>369.689574</ele>
        <time>2019-06-08T10:08:03.000Z</time>
      </trkpt>
      <trkpt lat="49.843243" lon="24.065340">
        <ele>369.493907</ele>
        <time>2019-06-08T10:08:13.000Z</time>
      </trkpt>
      <trkpt lat="49.843296" lon="24.065454">
        <ele>369.312750</ele>
        <time>2019-06-08T10:08:20.000Z</time>
      </trkpt>
      <trkpt lat="49.843320" lon="24.065590">
        <ele>369.130995</ele>
        <time>2019-06-08T10:08:28.000Z</time>
      </trkpt>
      <trkpt lat="49.843390" lon="24.065678">
        <ele>368.950868</ele>
        <time>2019-06-08T10:08:40.000Z</time>
      </trkpt>
      <trkpt lat="49.843452" lon="24.065792">
        <ele>368.758636</ele>
        <time>2019-06-08T10:08:54.000Z</time>
      </trkpt>
      <trkpt lat="49.843550" lon="24.065870">
        <ele>368.538449</ele>
        <time>2019-06-08T10:10:26.000Z</time>
      </trkpt>
      <trkpt lat="49.843647" lon="24.065930">
        <ele>368.329701</ele>
        <time>2019-06-08T10:10:45.000Z</time>
      </trkpt>
      <trkpt lat="49.843746" lon="24.065910">
        <ele>368.130139</ele>
        <time>2019-06-08T10:10:57.000Z</time>
      </trkpt>
      <trkpt lat="49.843884" lon="24.065900">
        <ele>367.853992</ele>
        <time>2019-06-08T10:12:34.000Z</time>
      </trkpt>
      <trkpt lat="49.843987" lon="24.065860">
        <ele>367.641749</ele>
        <time>2019-06-08T10:21:48.000Z</time>
      </trkpt>
      <trkpt lat="49.844067" lon="24.065792">
        <ele>367.459391</ele>
        <time>2019-06-08T10:22:09.000Z</time>
      </trkpt>
      <trkpt lat="49.844160" lon="24.065823">
        <ele>367.269249</ele>
        <time>2019-06-08T10:22:20.000Z</time>
      </trkpt>
      <trkpt lat="49.844250" lon="24.065840">
        <ele>367.088020</ele>
        <time>2019-06-08T10:22:33.000Z</time>
      </trkpt>
      <trkpt lat="49.844315" lon="24.065742">
        <ele>366.685265</ele>
        <time>2019-06-08T10:23:02.000Z</time>
      </trkpt>
      <trkpt lat="49.844276" lon="24.065609">
        <ele>366.210994</ele>
        <time>2019-06-08T10:24:21.000Z</time>
      </trkpt>
      <trkpt lat="49.844300" lon="24.065470">
        <ele>365.743893</ele>
        <time>2019-06-08T10:24:35.000Z</time>
      </trkpt>
      <trkpt lat="49.844310" lon="24.065329">
        <ele>365.283433</ele>
        <time>2019-06-08T10:24:47.000Z</time>
      </trkpt>
      <trkpt lat="49.844337" lon="24.065197">
        <ele>364.833909</ele>
        <time>2019-06-08T10:25:04.000Z</time>
      </trkpt>
      <trkpt lat="49.844320" lon="24.065037">
        <ele>364.307531</ele>
        <time>2019-06-08T10:27:47.000Z</time>
      </trkpt>
      <trkpt lat="49.844284" lon="24.064810">
        <ele>363.548710</ele>
        <time>2019-06-08T10:28:21.000Z</time>
      </trkpt>
      <trkpt lat="49.844322" lon="24.064676">
        <ele>363.073531</ele>
        <time>2019-06-08T10:28:34.000Z</time>
      </trkpt>
      <trkpt lat="49.844380" lon="24.064566">
        <ele>362.612295</ele>
        <time>2019-06-08T10:28:52.000Z</time>
      </trkpt>
      <trkpt lat="49.844480" lon="24.064486">
        <ele>362.045882</ele>
        <time>2019-06-08T10:29:20.000Z</time>
      </trkpt>
      <trkpt lat="49.844532" lon="24.064370">
        <ele>361.587294</ele>
        <time>2019-06-08T10:29:35.000Z</time>
      </trkpt>
      <trkpt lat="49.844590" lon="24.064247">
        <ele>361.092668</ele>
        <time>2019-06-08T10:29:47.000Z</time>
      </trkpt>
      <trkpt lat="49.844673" lon="24.064188">
        <ele>360.633062</ele>
        <time>2019-06-08T10:30:00.000Z</time>
      </trkpt>
      <trkpt lat="49.844772" lon="24.064127">
        <ele>360.096823</ele>
        <time>2019-06-08T10:30:13.000Z</time>
      </trkpt>
      <trkpt lat="49.844860" lon="24.064146">
        <ele>359.649580</ele>
        <time>2019-06-08T10:30:31.000Z</time>
      </trkpt>
      <trkpt lat="49.844950" lon="24.064150">
        <ele>359.196356</ele>
        <time>2019-06-08T10:30:42.000Z</time>
      </trkpt>
      <trkpt lat="49.845040" lon="24.064209">
        <ele>358.704500</ele>
        <time>2019-06-08T10:30:55.000Z</time>
      </trkpt>
      <trkpt lat="49.845127" lon="24.064257">
        <ele>358.239672</ele>
        <time>2019-06-08T10:31:12.000Z</time>
      </trkpt>
      <trkpt lat="49.845215" lon="24.064318">
        <ele>358.062536</ele>
        <time>2019-06-08T10:31:23.000Z</time>
      </trkpt>
      <trkpt lat="49.845276" lon="24.064430">
        <ele>358.186684</ele>
        <time>2019-06-08T10:31:36.000Z</time>
      </trkpt>
      <trkpt lat="49.845333" lon="24.064570">
        <ele>358.326895</ele>
        <time>2019-06-08T10:33:46.000Z</time>
      </trkpt>
      <trkpt lat="49.845310" lon="24.064432">
        <ele>358.447599</ele>
        <time>2019-06-08T10:35:26.000Z</time>
      </trkpt>
      <trkpt lat="49.845400" lon="24.064430">
        <ele>358.565802</ele>
        <time>2019-06-08T10:36:00.000Z</time>
      </trkpt>
      <trkpt lat="49.845490" lon="24.064470">
        <ele>358.688750</ele>
        <time>2019-06-08T10:36:10.000Z</time>
      </trkpt>
      <trkpt lat="49.845580" lon="24.064520">
        <ele>358.814297</ele>
        <time>2019-06-08T10:36:21.000Z</time>
      </trkpt>
      <trkpt lat="49.845642" lon="24.064634">
        <ele>358.940586</ele>
        <time>2019-06-08T10:36:35.000Z</time>
      </trkpt>
      <trkpt lat="49.845710" lon="24.064728">
        <ele>359.060214</ele>
        <time>2019-06-08T10:36:46.000Z</time>
      </trkpt>
      <trkpt lat="49.845780" lon="24.064842">
        <ele>359.193519</ele>
        <time>2019-06-08T10:37:00.000Z</time>
      </trkpt>
      <trkpt lat="49.845860" lon="24.064924">
        <ele>359.319452</ele>
        <time>2019-06-08T10:37:13.000Z</time>
      </trkpt>
      <trkpt lat="49.846020" lon="24.064934">
        <ele>359.529739</ele>
        <time>2019-06-08T10:38:29.000Z</time>
      </trkpt>
      <trkpt lat="49.845950" lon="24.065039">
        <ele>359.657632</ele>
        <time>2019-06-08T10:38:52.000Z</time>
      </trkpt>
      <trkpt lat="49.846080" lon="24.064856">
        <ele>359.888198</ele>
        <time>2019-06-08T10:39:09.000Z</time>
      </trkpt>
      <trkpt lat="49.846096" lon="24.065004">
        <ele>360.015277</ele>
        <time>2019-06-08T10:39:26.000Z</time>
      </trkpt>
      <trkpt lat="49.846070" lon="24.064861">
        <ele>360.141095</ele>
        <time>2019-06-08T10:39:58.000Z</time>
      </trkpt>
      <trkpt lat="49.846000" lon="24.064762">
        <ele>360.265509</ele>
        <time>2019-06-08T10:40:08.000Z</time>
      </trkpt>
      <trkpt lat="49.845856" lon="24.064781">
        <ele>360.408667</ele>
        <time>2019-06-08T10:41:18.000Z</time>
      </trkpt>
      <trkpt lat="49.845768" lon="24.064734">
        <ele>360.470567</ele>
        <time>2019-06-08T10:41:33.000Z</time>
      </trkpt>
      <trkpt lat="49.845750" lon="24.064590">
        <ele>360.533473</ele>
        <time>2019-06-08T10:41:48.000Z</time>
      </trkpt>
      <trkpt lat="49.845715" lon="24.064459">
        <ele>360.594286</ele>
        <time>2019-06-08T10:41:59.000Z</time>
      </trkpt>
      <trkpt lat="49.845634" lon="24.064380">
        <ele>360.657925</ele>
        <time>2019-06-08T10:42:11.000Z</time>
      </trkpt>
      <trkpt lat="49.845570" lon="24.064285">
        <ele>360.716845</ele>
        <time>2019-06-08T10:42:28.000Z</time>
      </trkpt>
      <trkpt lat="49.845486" lon="24.064220">
        <ele>360.779280</ele>
        <time>2019-06-08T10:42:41.000Z</time>
      </trkpt>
      <trkpt lat="49.845406" lon="24.064135">
        <ele>360.843775</ele>
        <time>2019-06-08T10:42:53.000Z</time>
      </trkpt>
      <trkpt lat="49.845318" lon="24.064070">
        <ele>360.908601</ele>
        <time>2019-06-08T10:43:05.000Z</time>
      </trkpt>
      <trkpt lat="49.845222" lon="24.064032">
        <ele>360.974495</ele>
        <time>2019-06-08T10:43:13.000Z</time>
      </trkpt>
      <trkpt lat="49.845130" lon="24.064047">
        <ele>361.036018</ele>
        <time>2019-06-08T10:43:36.000Z</time>
      </trkpt>
      <trkpt lat="49.845036" lon="24.064022">
        <ele>361.099447</ele>
        <time>2019-06-08T10:43:47.000Z</time>
      </trkpt>
      <trkpt lat="49.844944" lon="24.064014">
        <ele>361.160729</ele>
        <time>2019-06-08T10:43:56.000Z</time>
      </trkpt>
      <trkpt lat="49.844852" lon="24.064020">
        <ele>361.221969</ele>
        <time>2019-06-08T10:44:08.000Z</time>
      </trkpt>
      <trkpt lat="49.844757" lon="24.064056">
        <ele>361.287009</ele>
        <time>2019-06-08T10:44:17.000Z</time>
      </trkpt>
      <trkpt lat="49.844677" lon="24.064130">
        <ele>361.348961</ele>
        <time>2019-06-08T10:44:27.000Z</time>
      </trkpt>
      <trkpt lat="49.844600" lon="24.064222">
        <ele>361.413609</ele>
        <time>2019-06-08T10:44:37.000Z</time>
      </trkpt>
      <trkpt lat="49.844530" lon="24.064318">
        <ele>361.475757</ele>
        <time>2019-06-08T10:44:48.000Z</time>
      </trkpt>
      <trkpt lat="49.844444" lon="24.064380">
        <ele>361.538832</ele>
        <time>2019-06-08T10:44:59.000Z</time>
      </trkpt>
      <trkpt lat="49.844364" lon="24.064451">
        <ele>362.271887</ele>
        <time>2019-06-08T10:45:10.000Z</time>
      </trkpt>
      <trkpt lat="49.844288" lon="24.064528">
        <ele>363.273351</ele>
        <time>2019-06-08T10:45:20.000Z</time>
      </trkpt>
      <trkpt lat="49.844204" lon="24.064611">
        <ele>364.372113</ele>
        <time>2019-06-08T10:45:28.000Z</time>
      </trkpt>
      <trkpt lat="49.844116" lon="24.064577">
        <ele>365.372551</ele>
        <time>2019-06-08T10:45:45.000Z</time>
      </trkpt>
      <trkpt lat="49.844030" lon="24.064620">
        <ele>366.369346</ele>
        <time>2019-06-08T10:46:02.000Z</time>
      </trkpt>
      <trkpt lat="49.843950" lon="24.064547">
        <ele>367.393311</ele>
        <time>2019-06-08T10:46:23.000Z</time>
      </trkpt>
      <trkpt lat="49.843876" lon="24.064453">
        <ele>368.448556</ele>
        <time>2019-06-08T10:46:37.000Z</time>
      </trkpt>
      <trkpt lat="49.843810" lon="24.064352">
        <ele>369.471456</ele>
        <time>2019-06-08T10:46:51.000Z</time>
      </trkpt>
      <trkpt lat="49.843750" lon="24.064245">
        <ele>370.480161</ele>
        <time>2019-06-08T10:47:04.000Z</time>
      </trkpt>
      <trkpt lat="49.843690" lon="24.064133">
        <ele>371.515971</ele>
        <time>2019-06-08T10:47:24.000Z</time>
      </trkpt>
      <trkpt lat="49.843640" lon="24.064001">
        <ele>372.605010</ele>
        <time>2019-06-08T10:47:38.000Z</time>
      </trkpt>
      <trkpt lat="49.843560" lon="24.063927">
        <ele>373.632604</ele>
        <time>2019-06-08T10:47:50.000Z</time>
      </trkpt>
      <trkpt lat="49.843540" lon="24.063778">
        <ele>374.715290</ele>
        <time>2019-06-08T10:48:02.000Z</time>
      </trkpt>
      <trkpt lat="49.843517" lon="24.063640">
        <ele>375.729262</ele>
        <time>2019-06-08T10:48:12.000Z</time>
      </trkpt>
      <trkpt lat="49.843487" lon="24.063500">
        <ele>376.778751</ele>
        <time>2019-06-08T10:48:24.000Z</time>
      </trkpt>
      <trkpt lat="49.843456" lon="24.063354">
        <ele>377.872229</ele>
        <time>2019-06-08T10:48:38.000Z</time>
      </trkpt>
      <trkpt lat="49.843430" lon="24.063213">
        <ele>378.915489</ele>
        <time>2019-06-08T10:48:53.000Z</time>
      </trkpt>
      <trkpt lat="49.843388" lon="24.063063">
        <ele>380.078818</ele>
        <time>2019-06-08T10:49:33.000Z</time>
      </trkpt>
      <trkpt lat="49.843353" lon="24.062927">
        <ele>381.120504</ele>
        <time>2019-06-08T10:49:44.000Z</time>
      </trkpt>
      <trkpt lat="49.843273" lon="24.062874">
        <ele>381.786055</ele>
        <time>2019-06-08T10:50:04.000Z</time>
      </trkpt>
      <trkpt lat="49.843174" lon="24.062874">
        <ele>382.406914</ele>
        <time>2019-06-08T10:50:12.000Z</time>
      </trkpt>
      <trkpt lat="49.843086" lon="24.062914">
        <ele>382.982011</ele>
        <time>2019-06-08T10:50:25.000Z</time>
      </trkpt>
      <trkpt lat="49.842995" lon="24.062986">
        <ele>383.622695</ele>
        <time>2019-06-08T10:54:17.000Z</time>
      </trkpt>
      <trkpt lat="49.842934" lon="24.063093">
        <ele>384.200281</ele>
        <time>2019-06-08T10:55:56.000Z</time>
      </trkpt>
      <trkpt lat="49.842834" lon="24.063122">
        <ele>384.838285</ele>
        <time>2019-06-08T10:56:06.000Z</time>
      </trkpt>
      <trkpt lat="49.842740" lon="24.063185">
        <ele>385.480493</ele>
        <time>2019-06-08T10:56:12.000Z</time>
      </trkpt>
      <trkpt lat="49.842655" lon="24.063128">
        <ele>386.061265</ele>
        <time>2019-06-08T10:56:21.000Z</time>
      </trkpt>
      <trkpt lat="49.842650" lon="24.062962">
        <ele>386.733350</ele>
        <time>2019-06-08T10:56:28.000Z</time>
      </trkpt>
      <trkpt lat="49.842667" lon="24.062807">
        <ele>387.369218</ele>
        <time>2019-06-08T10:56:34.000Z</time>
      </trkpt>
      <trkpt lat="49.842686" lon="24.062643">
        <ele>388.043100</ele>
        <time>2019-06-08T10:56:40.000Z</time>
      </trkpt>
      <trkpt lat="49.842697" lon="24.062483">
        <ele>388.693854</ele>
        <time>2019-06-08T10:56:46.000Z</time>
      </trkpt>
      <trkpt lat="49.842716" lon="24.062328">
        <ele>389.331944</ele>
        <time>2019-06-08T10:56:53.000Z</time>
      </trkpt>
      <trkpt lat="49.842712" lon="24.062181">
        <ele>389.926984</ele>
        <time>2019-06-08T10:56:58.000Z</time>
      </trkpt>
      <trkpt lat="49.842724" lon="24.062029">
        <ele>390.546306</ele>
        <time>2019-06-08T10:57:03.000Z</time>
      </trkpt>
      <trkpt lat="49.842740" lon="24.061890">
        <ele>391.117347</ele>
        <time>2019-06-08T10:57:08.000Z</time>
      </trkpt>
      <trkpt lat="49.842743" lon="24.061735">
        <ele>391.744494</ele>
        <time>2019-06-08T10:57:13.000Z</time>
      </trkpt>
      <trkpt lat="49.842750" lon="24.061571">
        <ele>392.409209</ele>
        <time>2019-06-08T10:57:18.000Z</time>
      </trkpt>
      <trkpt lat="49.842747" lon="24.061420">
        <ele>392.520518</ele>
        <time>2019-06-08T10:57:22.000Z</time>
      </trkpt>
      <trkpt lat="49.842740" lon="24.061275">
        <ele>392.248887</ele>
        <time>2019-06-08T10:57:26.000Z</time>
      </trkpt>
      <trkpt lat="49.842730" lon="24.061110">
        <ele>391.939294</ele>
        <time>2019-06-08T10:57:31.000Z</time>
      </trkpt>
      <trkpt lat="49.842728" lon="24.060960">
        <ele>391.659021</ele>
        <time>2019-06-08T10:57:35.000Z</time>
      </trkpt>
      <trkpt lat="49.842728" lon="24.060795">
        <ele>391.350786</ele>
        <time>2019-06-08T10:57:39.000Z</time>
      </trkpt>
      <trkpt lat="49.842728" lon="24.060652">
        <ele>391.083649</ele>
        <time>2019-06-08T10:57:43.000Z</time>
      </trkpt>
      <trkpt lat="49.842735" lon="24.060490">
        <ele>390.780340</ele>
        <time>2019-06-08T10:57:48.000Z</time>
      </trkpt>
      <trkpt lat="49.842712" lon="24.060331">
        <ele>390.475933</ele>
        <time>2019-06-08T10:57:53.000Z</time>
      </trkpt>
      <trkpt lat="49.842674" lon="24.060179">
        <ele>390.171393</ele>
        <time>2019-06-08T10:57:57.000Z</time>
      </trkpt>
      <trkpt lat="49.842613" lon="24.060022">
        <ele>389.828985</ele>
        <time>2019-06-08T10:58:01.000Z</time>
      </trkpt>
      <trkpt lat="49.842540" lon="24.059902">
        <ele>389.520813</ele>
        <time>2019-06-08T10:58:04.000Z</time>
      </trkpt>
      <trkpt lat="49.842495" lon="24.059740">
        <ele>389.191300</ele>
        <time>2019-06-08T10:58:07.000Z</time>
      </trkpt>
      <trkpt lat="49.842440" lon="24.059568">
        <ele>388.832656</ele>
        <time>2019-06-08T10:58:10.000Z</time>
      </trkpt>
      <trkpt lat="49.842403" lon="24.059378">
        <ele>388.461887</ele>
        <time>2019-06-08T10:58:13.000Z</time>
      </trkpt>
      <trkpt lat="49.842380" lon="24.059196">
        <ele>388.115426</ele>
        <time>2019-06-08T10:58:17.000Z</time>
      </trkpt>
      <trkpt lat="49.842358" lon="24.059029">
        <ele>387.797010</ele>
        <time>2019-06-08T10:58:20.000Z</time>
      </trkpt>
      <trkpt lat="49.842358" lon="24.058820">
        <ele>387.341286</ele>
        <time>2019-06-08T10:58:23.000Z</time>
      </trkpt>
      <trkpt lat="49.842365" lon="24.058681">
        <ele>386.804626</ele>
        <time>2019-06-08T10:58:25.000Z</time>
      </trkpt>
      <trkpt lat="49.842365" lon="24.058537">
        <ele>386.250350</ele>
        <time>2019-06-08T10:58:27.000Z</time>
      </trkpt>
      <trkpt lat="49.842360" lon="24.058336">
        <ele>385.476096</ele>
        <time>2019-06-08T10:58:30.000Z</time>
      </trkpt>
      <trkpt lat="49.842365" lon="24.058195">
        <ele>384.932547</ele>
        <time>2019-06-08T10:58:32.000Z</time>
      </trkpt>
      <trkpt lat="49.842370" lon="24.058040">
        <ele>384.335184</ele>
        <time>2019-06-08T10:58:34.000Z</time>
      </trkpt>
      <trkpt lat="49.842370" lon="24.057880">
        <ele>383.719321</ele>
        <time>2019-06-08T10:58:36.000Z</time>
      </trkpt>
      <trkpt lat="49.842380" lon="24.057724">
        <ele>383.115896</ele>
        <time>2019-06-08T10:58:38.000Z</time>
      </trkpt>
      <trkpt lat="49.842390" lon="24.057580">
        <ele>382.558415</ele>
        <time>2019-06-08T10:58:40.000Z</time>
      </trkpt>
      <trkpt lat="49.842384" lon="24.057402">
        <ele>381.872332</ele>
        <time>2019-06-08T10:58:43.000Z</time>
      </trkpt>
      <trkpt lat="49.842335" lon="24.057228">
        <ele>381.141510</ele>
        <time>2019-06-08T10:58:46.000Z</time>
      </trkpt>
      <trkpt lat="49.842255" lon="24.057135">
        <ele>380.544733</ele>
        <time>2019-06-08T10:58:48.000Z</time>
      </trkpt>
      <trkpt lat="49.842175" lon="24.057003">
        <ele>379.847486</ele>
        <time>2019-06-08T10:58:51.000Z</time>
      </trkpt>
      <trkpt lat="49.842090" lon="24.056887">
        <ele>379.171650</ele>
        <time>2019-06-08T10:58:54.000Z</time>
      </trkpt>
      <trkpt lat="49.842020" lon="24.056805">
        <ele>378.648023</ele>
        <time>2019-06-08T10:58:56.000Z</time>
      </trkpt>
      <trkpt lat="49.841927" lon="24.056702">
        <ele>377.965891</ele>
        <time>2019-06-08T10:58:58.000Z</time>
      </trkpt>
      <trkpt lat="49.841827" lon="24.056591">
        <ele>377.231862</ele>
        <time>2019-06-08T10:59:00.000Z</time>
      </trkpt>
      <trkpt lat="49.841740" lon="24.056480">
        <ele>376.616749</ele>
        <time>2019-06-08T10:59:02.000Z</time>
      </trkpt>
      <trkpt lat="49.841656" lon="24.056347">
        <ele>376.137354</ele>
        <time>2019-06-08T10:59:05.000Z</time>
      </trkpt>
      <trkpt lat="49.841587" lon="24.056238">
        <ele>375.744025</ele>
        <time>2019-06-08T10:59:08.000Z</time>
      </trkpt>
      <trkpt lat="49.841507" lon="24.056107">
        <ele>375.279419</ele>
        <time>2019-06-08T10:59:11.000Z</time>
      </trkpt>
      <trkpt lat="49.841440" lon="24.055956">
        <ele>374.807413</ele>
        <time>2019-06-08T10:59:14.000Z</time>
      </trkpt>
      <trkpt lat="49.841380" lon="24.055813">
        <ele>374.368076</ele>
        <time>2019-06-08T10:59:17.000Z</time>
      </trkpt>
      <trkpt lat="49.841305" lon="24.055668">
        <ele>373.889404</ele>
        <time>2019-06-08T10:59:20.000Z</time>
      </trkpt>
      <trkpt lat="49.841263" lon="24.055544">
        <ele>373.528712</ele>
        <time>2019-06-08T10:59:22.000Z</time>
      </trkpt>
      <trkpt lat="49.841225" lon="24.055408">
        <ele>373.147022</ele>
        <time>2019-06-08T10:59:24.000Z</time>
      </trkpt>
      <trkpt lat="49.841213" lon="24.055246">
        <ele>372.727091</ele>
        <time>2019-06-08T10:59:26.000Z</time>
      </trkpt>
      <trkpt lat="49.841232" lon="24.055096">
        <ele>372.333425</ele>
        <time>2019-06-08T10:59:28.000Z</time>
      </trkpt>
      <trkpt lat="49.841316" lon="24.055030">
        <ele>371.957394</ele>
        <time>2019-06-08T10:59:31.000Z</time>
      </trkpt>
      <trkpt lat="49.841396" lon="24.054918">
        <ele>371.526999</ele>
        <time>2019-06-08T10:59:35.000Z</time>
      </trkpt>
      <trkpt lat="49.841476" lon="24.054813">
        <ele>371.108470</ele>
        <time>2019-06-08T10:59:39.000Z</time>
      </trkpt>
      <trkpt lat="49.841550" lon="24.054695">
        <ele>370.684609</ele>
        <time>2019-06-08T10:59:43.000Z</time>
      </trkpt>
      <trkpt lat="49.841610" lon="24.054596">
        <ele>370.334750</ele>
        <time>2019-06-08T10:59:48.000Z</time>
      </trkpt>
      <trkpt lat="49.841682" lon="24.054462">
        <ele>369.885595</ele>
        <time>2019-06-08T10:59:53.000Z</time>
      </trkpt>
      <trkpt lat="49.841732" lon="24.054327">
        <ele>369.479200</ele>
        <time>2019-06-08T10:59:57.000Z</time>
      </trkpt>
      <trkpt lat="49.841780" lon="24.054182">
        <ele>369.024400</ele>
        <time>2019-06-08T11:00:01.000Z</time>
      </trkpt>
      <trkpt lat="49.841824" lon="24.054037">
        <ele>368.577239</ele>
        <time>2019-06-08T11:00:05.000Z</time>
      </trkpt>
      <trkpt lat="49.841866" lon="24.053875">
        <ele>368.090033</ele>
        <time>2019-06-08T11:00:10.000Z</time>
      </trkpt>
      <trkpt lat="49.841890" lon="24.053717">
        <ele>367.637086</ele>
        <time>2019-06-08T11:00:14.000Z</time>
      </trkpt>
      <trkpt lat="49.841923" lon="24.053570">
        <ele>367.202756</ele>
        <time>2019-06-08T11:00:18.000Z</time>
      </trkpt>
      <trkpt lat="49.841970" lon="24.053423">
        <ele>366.744924</ele>
        <time>2019-06-08T11:00:22.000Z</time>
      </trkpt>
      <trkpt lat="49.841988" lon="24.053282">
        <ele>366.343844</ele>
        <time>2019-06-08T11:00:25.000Z</time>
      </trkpt>
      <trkpt lat="49.841970" lon="24.053099">
        <ele>365.827297</ele>
        <time>2019-06-08T11:00:29.000Z</time>
      </trkpt>
      <trkpt lat="49.841940" lon="24.052938">
        <ele>365.359667</ele>
        <time>2019-06-08T11:00:32.000Z</time>
      </trkpt>
      <trkpt lat="49.841900" lon="24.052809">
        <ele>364.960259</ele>
        <time>2019-06-08T11:00:35.000Z</time>
      </trkpt>
      <trkpt lat="49.841846" lon="24.052677">
        <ele>364.524069</ele>
        <time>2019-06-08T11:00:40.000Z</time>
      </trkpt>
      <trkpt lat="49.841816" lon="24.052510">
        <ele>364.040331</ele>
        <time>2019-06-08T11:00:44.000Z</time>
      </trkpt>
      <trkpt lat="49.841820" lon="24.052364">
        <ele>363.632565</ele>
        <time>2019-06-08T11:00:48.000Z</time>
      </trkpt>
      <trkpt lat="49.841830" lon="24.052208">
        <ele>363.195117</ele>
        <time>2019-06-08T11:00:51.000Z</time>
      </trkpt>
      <trkpt lat="49.841860" lon="24.052067">
        <ele>362.780811</ele>
        <time>2019-06-08T11:00:54.000Z</time>
      </trkpt>
      <trkpt lat="49.841892" lon="24.051907">
        <ele>362.313371</ele>
        <time>2019-06-08T11:00:57.000Z</time>
      </trkpt>
      <trkpt lat="49.841904" lon="24.051743">
        <ele>361.852810</ele>
        <time>2019-06-08T11:01:02.000Z</time>
      </trkpt>
      <trkpt lat="49.841910" lon="24.051590">
        <ele>361.276710</ele>
        <time>2019-06-08T11:01:05.000Z</time>
      </trkpt>
      <trkpt lat="49.841923" lon="24.051424">
        <ele>360.608110</ele>
        <time>2019-06-08T11:01:08.000Z</time>
      </trkpt>
      <trkpt lat="49.841965" lon="24.051273">
        <ele>359.950599</ele>
        <time>2019-06-08T11:01:11.000Z</time>
      </trkpt>
      <trkpt lat="49.841984" lon="24.051090">
        <ele>359.209481</ele>
        <time>2019-06-08T11:01:14.000Z</time>
      </trkpt>
      <trkpt lat="49.842010" lon="24.050907">
        <ele>358.460239</ele>
        <time>2019-06-08T11:01:17.000Z</time>
      </trkpt>
      <trkpt lat="49.842050" lon="24.050732">
        <ele>357.717882</ele>
        <time>2019-06-08T11:01:20.000Z</time>
      </trkpt>
      <trkpt lat="49.842080" lon="24.050590">
        <ele>357.120429</ele>
        <time>2019-06-08T11:01:22.000Z</time>
      </trkpt>
      <trkpt lat="49.842080" lon="24.050400">
        <ele>356.360746</ele>
        <time>2019-06-08T11:01:25.000Z</time>
      </trkpt>
      <trkpt lat="49.842045" lon="24.050270">
        <ele>355.797486</ele>
        <time>2019-06-08T11:01:27.000Z</time>
      </trkpt>
      <trkpt lat="49.842014" lon="24.050087">
        <ele>355.040969</ele>
        <time>2019-06-08T11:01:30.000Z</time>
      </trkpt>
      <trkpt lat="49.841976" lon="24.049885">
        <ele>354.199644</ele>
        <time>2019-06-08T11:01:33.000Z</time>
      </trkpt>
      <trkpt lat="49.841946" lon="24.049698">
        <ele>353.429167</ele>
        <time>2019-06-08T11:01:36.000Z</time>
      </trkpt>
      <trkpt lat="49.841923" lon="24.049540">
        <ele>352.781535</ele>
        <time>2019-06-08T11:01:39.000Z</time>
      </trkpt>
      <trkpt lat="49.841900" lon="24.049397">
        <ele>352.192258</ele>
        <time>2019-06-08T11:01:42.000Z</time>
      </trkpt>
      <trkpt lat="49.841880" lon="24.049255">
        <ele>351.611110</ele>
        <time>2019-06-08T11:01:45.000Z</time>
      </trkpt>
      <trkpt lat="49.841790" lon="24.049210">
        <ele>351.024823</ele>
        <time>2019-06-08T11:01:49.000Z</time>
      </trkpt>
      <trkpt lat="49.841710" lon="24.049116">
        <ele>350.711769</ele>
        <time>2019-06-08T11:01:55.000Z</time>
      </trkpt>
      <trkpt lat="49.841618" lon="24.049017">
        <ele>351.021583</ele>
        <time>2019-06-08T11:01:59.000Z</time>
      </trkpt>
      <trkpt lat="49.841545" lon="24.048939">
        <ele>351.266850</ele>
        <time>2019-06-08T11:02:02.000Z</time>
      </trkpt>
      <trkpt lat="49.841465" lon="24.048811">
        <ele>351.584879</ele>
        <time>2019-06-08T11:02:06.000Z</time>
      </trkpt>
      <trkpt lat="49.841390" lon="24.048733">
        <ele>351.834723</ele>
        <time>2019-06-08T11:02:09.000Z</time>
      </trkpt>
      <trkpt lat="49.841320" lon="24.048603">
        <ele>352.136889</ele>
        <time>2019-06-08T11:02:12.000Z</time>
      </trkpt>
      <trkpt lat="49.841267" lon="24.048454">
        <ele>352.440492</ele>
        <time>2019-06-08T11:02:15.000Z</time>
      </trkpt>
      <trkpt lat="49.841213" lon="24.048320">
        <ele>352.722415</ele>
        <time>2019-06-08T11:02:19.000Z</time>
      </trkpt>
      <trkpt lat="49.841210" lon="24.048153">
        <ele>353.020493</ele>
        <time>2019-06-08T11:02:23.000Z</time>
      </trkpt>
      <trkpt lat="49.841156" lon="24.048000">
        <ele>353.331683</ele>
        <time>2019-06-08T11:02:27.000Z</time>
      </trkpt>
      <trkpt lat="49.841164" lon="24.047861">
        <ele>353.580674</ele>
        <time>2019-06-08T11:02:33.000Z</time>
      </trkpt>
      <trkpt lat="49.841255" lon="24.047796">
        <ele>353.857863</ele>
        <time>2019-06-08T11:02:40.000Z</time>
      </trkpt>
      <trkpt lat="49.841350" lon="24.047768">
        <ele>354.125396</ele>
        <time>2019-06-08T11:02:46.000Z</time>
      </trkpt>
      <trkpt lat="49.841450" lon="24.047731">
        <ele>354.409824</ele>
        <time>2019-06-08T11:02:52.000Z</time>
      </trkpt>
      <trkpt lat="49.841540" lon="24.047680">
        <ele>354.674925</ele>
        <time>2019-06-08T11:02:58.000Z</time>
      </trkpt>
      <trkpt lat="49.841630" lon="24.047636">
        <ele>354.936002</ele>
        <time>2019-06-08T11:03:04.000Z</time>
      </trkpt>
      <trkpt lat="49.841724" lon="24.047600">
        <ele>355.203877</ele>
        <time>2019-06-08T11:03:10.000Z</time>
      </trkpt>
      <trkpt lat="49.841820" lon="24.047562">
        <ele>355.477989</ele>
        <time>2019-06-08T11:03:15.000Z</time>
      </trkpt>
      <trkpt lat="49.841910" lon="24.047522">
        <ele>355.387356</ele>
        <time>2019-06-08T11:03:19.000Z</time>
      </trkpt>
      <trkpt lat="49.841938" lon="24.047365">
        <ele>354.974841</ele>
        <time>2019-06-08T11:03:24.000Z</time>
      </trkpt>
      <trkpt lat="49.841927" lon="24.047213">
        <ele>354.587496</ele>
        <time>2019-06-08T11:03:29.000Z</time>
      </trkpt>
      <trkpt lat="49.841927" lon="24.047066">
        <ele>354.215229</ele>
        <time>2019-06-08T11:03:34.000Z</time>
      </trkpt>
      <trkpt lat="49.841927" lon="24.046923">
        <ele>353.853092</ele>
        <time>2019-06-08T11:03:39.000Z</time>
      </trkpt>
      <trkpt lat="49.841910" lon="24.046772">
        <ele>353.464912</ele>
        <time>2019-06-08T11:03:43.000Z</time>
      </trkpt>
      <trkpt lat="49.841920" lon="24.046608">
        <ele>353.047742</ele>
        <time>2019-06-08T11:03:47.000Z</time>
      </trkpt>
      <trkpt lat="49.841927" lon="24.046469">
        <ele>352.694662</ele>
        <time>2019-06-08T11:03:50.000Z</time>
      </trkpt>
      <trkpt lat="49.841927" lon="24.046282">
        <ele>352.221098</ele>
        <time>2019-06-08T11:03:54.000Z</time>
      </trkpt>
      <trkpt lat="49.841930" lon="24.046143">
        <ele>351.868894</ele>
        <time>2019-06-08T11:03:57.000Z</time>
      </trkpt>
      <trkpt lat="49.841938" lon="24.045986">
        <ele>351.470064</ele>
        <time>2019-06-08T11:04:00.000Z</time>
      </trkpt>
      <trkpt lat="49.841950" lon="24.045826">
        <ele>351.062144</ele>
        <time>2019-06-08T11:04:03.000Z</time>
      </trkpt>
      <trkpt lat="49.841972" lon="24.045685">
        <ele>350.694770</ele>
        <time>2019-06-08T11:04:07.000Z</time>
      </trkpt>
      <trkpt lat="49.842007" lon="24.045544">
        <ele>350.312161</ele>
        <time>2019-06-08T11:04:13.000Z</time>
      </trkpt>
      <trkpt lat="49.842033" lon="24.045385">
        <ele>349.896763</ele>
        <time>2019-06-08T11:04:17.000Z</time>
      </trkpt>
      <trkpt lat="49.842052" lon="24.045206">
        <ele>349.437360</ele>
        <time>2019-06-08T11:04:21.000Z</time>
      </trkpt>
      <trkpt lat="49.842064" lon="24.045038">
        <ele>349.009312</ele>
        <time>2019-06-08T11:04:25.000Z</time>
      </trkpt>
      <trkpt lat="49.842087" lon="24.044891">
        <ele>348.626246</ele>
        <time>2019-06-08T11:04:29.000Z</time>
      </trkpt>
      <trkpt lat="49.842102" lon="24.044737">
        <ele>348.352723</ele>
        <time>2019-06-08T11:04:33.000Z</time>
      </trkpt>
      <trkpt lat="49.842113" lon="24.044569">
        <ele>348.098787</ele>
        <time>2019-06-08T11:04:37.000Z</time>
      </trkpt>
      <trkpt lat="49.842133" lon="24.044420">
        <ele>347.869919</ele>
        <time>2019-06-08T11:04:41.000Z</time>
      </trkpt>
      <trkpt lat="49.842180" lon="24.044287">
        <ele>347.641854</ele>
        <time>2019-06-08T11:04:45.000Z</time>
      </trkpt>
      <trkpt lat="49.842224" lon="24.044147">
        <ele>347.407653</ele>
        <time>2019-06-08T11:04:49.000Z</time>
      </trkpt>
      <trkpt lat="49.842274" lon="24.044008">
        <ele>347.168308</ele>
        <time>2019-06-08T11:04:53.000Z</time>
      </trkpt>
      <trkpt lat="49.842316" lon="24.043879">
        <ele>346.950998</ele>
        <time>2019-06-08T11:04:57.000Z</time>
      </trkpt>
      <trkpt lat="49.842365" lon="24.043700">
        <ele>346.658573</ele>
        <time>2019-06-08T11:05:02.000Z</time>
      </trkpt>
      <trkpt lat="49.842410" lon="24.043566">
        <ele>346.431381</ele>
        <time>2019-06-08T11:05:06.000Z</time>
      </trkpt>
      <trkpt lat="49.842453" lon="24.043428">
        <ele>346.200904</ele>
        <time>2019-06-08T11:05:10.000Z</time>
      </trkpt>
      <trkpt lat="49.842495" lon="24.043280">
        <ele>345.957748</ele>
        <time>2019-06-08T11:05:14.000Z</time>
      </trkpt>
      <trkpt lat="49.842540" lon="24.043140">
        <ele>345.722516</ele>
        <time>2019-06-08T11:05:18.000Z</time>
      </trkpt>
      <trkpt lat="49.842590" lon="24.043000">
        <ele>345.481858</ele>
        <time>2019-06-08T11:05:22.000Z</time>
      </trkpt>
      <trkpt lat="49.842644" lon="24.042868">
        <ele>345.246788</ele>
        <time>2019-06-08T11:05:25.000Z</time>
      </trkpt>
      <trkpt lat="49.842686" lon="24.042711">
        <ele>344.991187</ele>
        <time>2019-06-08T11:05:28.000Z</time>
      </trkpt>
      <trkpt lat="49.842740" lon="24.042553">
        <ele>344.722286</ele>
        <time>2019-06-08T11:05:31.000Z</time>
      </trkpt>
      <trkpt lat="49.842780" lon="24.042389">
        <ele>344.458617</ele>
        <time>2019-06-08T11:05:34.000Z</time>
      </trkpt>
      <trkpt lat="49.842820" lon="24.042248">
        <ele>344.191885</ele>
        <time>2019-06-08T11:05:37.000Z</time>
      </trkpt>
      <trkpt lat="49.842870" lon="24.042107">
        <ele>343.871531</ele>
        <time>2019-06-08T11:05:41.000Z</time>
      </trkpt>
      <trkpt lat="49.842890" lon="24.041952">
        <ele>343.556829</ele>
        <time>2019-06-08T11:05:44.000Z</time>
      </trkpt>
      <trkpt lat="49.842915" lon="24.041779">
        <ele>343.203866</ele>
        <time>2019-06-08T11:05:48.000Z</time>
      </trkpt>
      <trkpt lat="49.842950" lon="24.041603">
        <ele>342.837191</ele>
        <time>2019-06-08T11:05:52.000Z</time>
      </trkpt>
      <trkpt lat="49.842976" lon="24.041456">
        <ele>342.533725</ele>
        <time>2019-06-08T11:05:55.000Z</time>
      </trkpt>
      <trkpt lat="49.843018" lon="24.041279">
        <ele>342.158243</ele>
        <time>2019-06-08T11:05:58.000Z</time>
      </trkpt>
      <trkpt lat="49.843044" lon="24.041119">
        <ele>341.829747</ele>
        <time>2019-06-08T11:06:01.000Z</time>
      </trkpt>
      <trkpt lat="49.843075" lon="24.040956">
        <ele>341.491418</ele>
        <time>2019-06-08T11:06:04.000Z</time>
      </trkpt>
      <trkpt lat="49.843094" lon="24.040777">
        <ele>341.130258</ele>
        <time>2019-06-08T11:06:07.000Z</time>
      </trkpt>
      <trkpt lat="49.843110" lon="24.040607">
        <ele>340.788225</ele>
        <time>2019-06-08T11:06:10.000Z</time>
      </trkpt>
      <trkpt lat="49.843143" lon="24.040442">
        <ele>340.444297</ele>
        <time>2019-06-08T11:06:13.000Z</time>
      </trkpt>
      <trkpt lat="49.843166" lon="24.040281">
        <ele>340.115998</ele>
        <time>2019-06-08T11:06:16.000Z</time>
      </trkpt>
      <trkpt lat="49.843193" lon="24.040142">
        <ele>339.826987</ele>
        <time>2019-06-08T11:06:20.000Z</time>
      </trkpt>
      <trkpt lat="49.843216" lon="24.039978">
        <ele>339.492854</ele>
        <time>2019-06-08T11:06:24.000Z</time>
      </trkpt>
      <trkpt lat="49.843240" lon="24.039814">
        <ele>339.158051</ele>
        <time>2019-06-08T11:06:27.000Z</time>
      </trkpt>
      <trkpt lat="49.843270" lon="24.039623">
        <ele>338.757251</ele>
        <time>2019-06-08T11:06:30.000Z</time>
      </trkpt>
      <trkpt lat="49.843260" lon="24.039448">
        <ele>338.200068</ele>
        <time>2019-06-08T11:06:34.000Z</time>
      </trkpt>
      <trkpt lat="49.843292" lon="24.039316">
        <ele>337.752830</ele>
        <time>2019-06-08T11:06:38.000Z</time>
      </trkpt>
      <trkpt lat="49.843315" lon="24.039156">
        <ele>337.232941</ele>
        <time>2019-06-08T11:06:43.000Z</time>
      </trkpt>
      <trkpt lat="49.843315" lon="24.038982">
        <ele>336.681104</ele>
        <time>2019-06-08T11:06:47.000Z</time>
      </trkpt>
      <trkpt lat="49.843323" lon="24.038815">
        <ele>336.150009</ele>
        <time>2019-06-08T11:06:52.000Z</time>
      </trkpt>
      <trkpt lat="49.843330" lon="24.038624">
        <ele>335.543280</ele>
        <time>2019-06-08T11:06:56.000Z</time>
      </trkpt>
      <trkpt lat="49.843327" lon="24.038460">
        <ele>335.022950</ele>
        <time>2019-06-08T11:06:59.000Z</time>
      </trkpt>
      <trkpt lat="49.843327" lon="24.038294">
        <ele>334.496485</ele>
        <time>2019-06-08T11:07:02.000Z</time>
      </trkpt>
      <trkpt lat="49.843338" lon="24.038147">
        <ele>334.027151</ele>
        <time>2019-06-08T11:07:05.000Z</time>
      </trkpt>
      <trkpt lat="49.843338" lon="24.037990">
        <ele>333.529230</ele>
        <time>2019-06-08T11:07:09.000Z</time>
      </trkpt>
      <trkpt lat="49.843323" lon="24.037850">
        <ele>333.079137</ele>
        <time>2019-06-08T11:07:13.000Z</time>
      </trkpt>
      <trkpt lat="49.843296" lon="24.037678">
        <ele>332.517715</ele>
        <time>2019-06-08T11:07:17.000Z</time>
      </trkpt>
      <trkpt lat="49.843273" lon="24.037529">
        <ele>332.031817</ele>
        <time>2019-06-08T11:07:20.000Z</time>
      </trkpt>
      <trkpt lat="49.843258" lon="24.037392">
        <ele>331.591106</ele>
        <time>2019-06-08T11:07:24.000Z</time>
      </trkpt>
      <trkpt lat="49.843230" lon="24.037203">
        <ele>330.976083</ele>
        <time>2019-06-08T11:07:28.000Z</time>
      </trkpt>
      <trkpt lat="49.843210" lon="24.037016">
        <ele>330.374916</ele>
        <time>2019-06-08T11:07:31.000Z</time>
      </trkpt>
      <trkpt lat="49.843190" lon="24.036835">
        <ele>329.920508</ele>
        <time>2019-06-08T11:07:34.000Z</time>
      </trkpt>
      <trkpt lat="49.843170" lon="24.036667">
        <ele>329.858709</ele>
        <time>2019-06-08T11:07:37.000Z</time>
      </trkpt>
      <trkpt lat="49.843155" lon="24.036522">
        <ele>329.805587</ele>
        <time>2019-06-08T11:07:40.000Z</time>
      </trkpt>
      <trkpt lat="49.843143" lon="24.036362">
        <ele>329.747318</ele>
        <time>2019-06-08T11:07:44.000Z</time>
      </trkpt>
      <trkpt lat="49.843174" lon="24.036226">
        <ele>329.695139</ele>
        <time>2019-06-08T11:07:50.000Z</time>
      </trkpt>
      <trkpt lat="49.843296" lon="24.036247">
        <ele>329.626284</ele>
        <time>2019-06-08T11:08:24.000Z</time>
      </trkpt>
      <trkpt lat="49.843390" lon="24.036245">
        <ele>329.573551</ele>
        <time>2019-06-08T11:08:31.000Z</time>
      </trkpt>
      <trkpt lat="49.843502" lon="24.036232">
        <ele>329.510550</ele>
        <time>2019-06-08T11:08:36.000Z</time>
      </trkpt>
      <trkpt lat="49.843610" lon="24.036224">
        <ele>329.449900</ele>
        <time>2019-06-08T11:08:40.000Z</time>
      </trkpt>
      <trkpt lat="49.843697" lon="24.036215">
        <ele>329.400990</ele>
        <time>2019-06-08T11:08:45.000Z</time>
      </trkpt>
      <trkpt lat="49.843690" lon="24.036066">
        <ele>329.346949</ele>
        <time>2019-06-08T11:10:10.000Z</time>
      </trkpt>
      <trkpt lat="49.843563" lon="24.035986">
        <ele>329.270056</ele>
        <time>2019-06-08T11:10:31.000Z</time>
      </trkpt>
      <trkpt lat="49.843468" lon="24.036007">
        <ele>329.216229</ele>
        <time>2019-06-08T11:10:35.000Z</time>
      </trkpt>
      <trkpt lat="49.843365" lon="24.036009">
        <ele>329.158447</ele>
        <time>2019-06-08T11:10:39.000Z</time>
      </trkpt>
      <trkpt lat="49.843266" lon="24.035995">
        <ele>329.102684</ele>
        <time>2019-06-08T11:10:43.000Z</time>
      </trkpt>
      <trkpt lat="49.843216" lon="24.035873">
        <ele>329.050394</ele>
        <time>2019-06-08T11:10:53.000Z</time>
      </trkpt>
      <trkpt lat="49.843120" lon="24.035862">
        <ele>328.996397</ele>
        <time>2019-06-08T11:10:59.000Z</time>
      </trkpt>
      <trkpt lat="49.843025" lon="24.035910">
        <ele>328.940351</ele>
        <time>2019-06-08T11:11:03.000Z</time>
      </trkpt>
      <trkpt lat="49.842937" lon="24.035933">
        <ele>328.725009</ele>
        <time>2019-06-08T11:11:06.000Z</time>
      </trkpt>
      <trkpt lat="49.842840" lon="24.035965">
        <ele>328.425939</ele>
        <time>2019-06-08T11:11:09.000Z</time>
      </trkpt>
      <trkpt lat="49.842716" lon="24.035976">
        <ele>328.051379</ele>
        <time>2019-06-08T11:11:12.000Z</time>
      </trkpt>
      <trkpt lat="49.842613" lon="24.035988">
        <ele>327.739885</ele>
        <time>2019-06-08T11:11:15.000Z</time>
      </trkpt>
      <trkpt lat="49.842518" lon="24.036020">
        <ele>327.446711</ele>
        <time>2019-06-08T11:11:17.000Z</time>
      </trkpt>
      <trkpt lat="49.842422" lon="24.036028">
        <ele>327.156785</ele>
        <time>2019-06-08T11:11:19.000Z</time>
      </trkpt>
      <trkpt lat="49.842297" lon="24.036062">
        <ele>326.774065</ele>
        <time>2019-06-08T11:11:22.000Z</time>
      </trkpt>
      <trkpt lat="49.842205" lon="24.036090">
        <ele>326.491326</ele>
        <time>2019-06-08T11:11:25.000Z</time>
      </trkpt>
      <trkpt lat="49.842110" lon="24.036003">
        <ele>326.158601</ele>
        <time>2019-06-08T11:11:29.000Z</time>
      </trkpt>
      <trkpt lat="49.842064" lon="24.035858">
        <ele>325.844328</ele>
        <time>2019-06-08T11:11:33.000Z</time>
      </trkpt>
      <trkpt lat="49.842052" lon="24.035694">
        <ele>325.523330</ele>
        <time>2019-06-08T11:11:36.000Z</time>
      </trkpt>
      <trkpt lat="49.842068" lon="24.035536">
        <ele>325.212283</ele>
        <time>2019-06-08T11:11:39.000Z</time>
      </trkpt>
      <trkpt lat="49.842070" lon="24.035370">
        <ele>324.889386</ele>
        <time>2019-06-08T11:11:43.000Z</time>
      </trkpt>
      <trkpt lat="49.842110" lon="24.035242">
        <ele>324.612762</ele>
        <time>2019-06-08T11:11:49.000Z</time>
      </trkpt>
      <trkpt lat="49.842056" lon="24.035122">
        <ele>324.328183</ele>
        <time>2019-06-08T11:11:54.000Z</time>
      </trkpt>
      <trkpt lat="49.841960" lon="24.035072">
        <ele>324.022780</ele>
        <time>2019-06-08T11:11:59.000Z</time>
      </trkpt>
      <trkpt lat="49.841866" lon="24.035114">
        <ele>323.727769</ele>
        <time>2019-06-08T11:12:03.000Z</time>
      </trkpt>
      <trkpt lat="49.841763" lon="24.035130">
        <ele>323.633703</ele>
        <time>2019-06-08T11:12:07.000Z</time>
      </trkpt>
      <trkpt lat="49.841660" lon="24.035141">
        <ele>324.091637</ele>
        <time>2019-06-08T11:12:12.000Z</time>
      </trkpt>
      <trkpt lat="49.841595" lon="24.035042">
        <ele>324.495756</ele>
        <time>2019-06-08T11:12:18.000Z</time>
      </trkpt>
      <trkpt lat="49.841515" lon="24.034935">
        <ele>324.964356</ele>
        <time>2019-06-08T11:12:25.000Z</time>
      </trkpt>
      <trkpt lat="49.841408" lon="24.034956">
        <ele>325.442736</ele>
        <time>2019-06-08T11:12:29.000Z</time>
      </trkpt>
      <trkpt lat="49.841312" lon="24.034977">
        <ele>325.872755</ele>
        <time>2019-06-08T11:12:34.000Z</time>
      </trkpt>
      <trkpt lat="49.841220" lon="24.035040">
        <ele>326.318838</ele>
        <time>2019-06-08T11:12:39.000Z</time>
      </trkpt>
      <trkpt lat="49.841175" lon="24.034910">
        <ele>326.740878</ele>
        <time>2019-06-08T11:12:51.000Z</time>
      </trkpt>
      <trkpt lat="49.841255" lon="24.034836">
        <ele>327.154055</ele>
        <time>2019-06-08T11:12:59.000Z</time>
      </trkpt>
      <trkpt lat="49.841347" lon="24.034813">
        <ele>327.567386</ele>
        <time>2019-06-08T11:13:42.000Z</time>
      </trkpt>
      <trkpt lat="49.841354" lon="24.034647">
        <ele>328.043235</ele>
        <time>2019-06-08T11:14:35.000Z</time>
      </trkpt>
      <trkpt lat="49.841300" lon="24.034765">
        <ele>328.457114</ele>
        <time>2019-06-08T11:16:10.000Z</time>
      </trkpt>
      <trkpt lat="49.841206" lon="24.034792">
        <ele>328.881140</ele>
        <time>2019-06-08T11:16:20.000Z</time>
      </trkpt>
      <trkpt lat="49.841130" lon="24.034700">
        <ele>329.308793</ele>
        <time>2019-06-08T11:16:33.000Z</time>
      </trkpt>
      <trkpt lat="49.841114" lon="24.034563">
        <ele>329.707051</ele>
        <time>2019-06-08T11:16:44.000Z</time>
      </trkpt>
      <trkpt lat="49.841137" lon="24.034723">
        <ele>330.175957</ele>
        <time>2019-06-08T13:43:42.000Z</time>
      </trkpt>
      <trkpt lat="49.841100" lon="24.034592">
        <ele>330.585040</ele>
        <time>2019-06-08T13:44:05.000Z</time>
      </trkpt>
      <trkpt lat="49.840828" lon="24.034500">
        <ele>331.368131</ele>
        <time>2019-06-08T13:46:19.000Z</time>
      </trkpt>
      <trkpt lat="49.840942" lon="24.034441">
        <ele>331.189164</ele>
        <time>2019-06-08T13:47:17.000Z</time>
      </trkpt>
      <trkpt lat="49.841236" lon="24.034416">
        <ele>330.750704</ele>
        <time>2019-06-08T13:53:08.000Z</time>
      </trkpt>
      <trkpt lat="49.841137" lon="24.034395">
        <ele>330.601907</ele>
        <time>2019-06-08T13:53:13.000Z</time>
      </trkpt>
      <trkpt lat="49.841090" lon="24.034267">
        <ele>330.460454</ele>
        <time>2019-06-08T13:53:26.000Z</time>
      </trkpt>
      <trkpt lat="49.841050" lon="24.034138">
        <ele>330.322993</ele>
        <time>2019-06-08T13:53:35.000Z</time>
      </trkpt>
      <trkpt lat="49.840973" lon="24.034048">
        <ele>330.179404</ele>
        <time>2019-06-08T13:53:46.000Z</time>
      </trkpt>
      <trkpt lat="49.840984" lon="24.033909">
        <ele>330.044913</ele>
        <time>2019-06-08T13:53:55.000Z</time>
      </trkpt>
      <trkpt lat="49.840954" lon="24.033768">
        <ele>329.902325</ele>
        <time>2019-06-08T13:54:08.000Z</time>
      </trkpt>
      <trkpt lat="49.840946" lon="24.033627">
        <ele>329.766392</ele>
        <time>2019-06-08T13:54:20.000Z</time>
      </trkpt>
      <trkpt lat="49.840927" lon="24.033480">
        <ele>329.622412</ele>
        <time>2019-06-08T13:54:31.000Z</time>
      </trkpt>
      <trkpt lat="49.840897" lon="24.033339">
        <ele>329.479823</ele>
        <time>2019-06-08T13:54:43.000Z</time>
      </trkpt>
      <trkpt lat="49.840830" lon="24.033228">
        <ele>329.333817</ele>
        <time>2019-06-08T13:54:52.000Z</time>
      </trkpt>
      <trkpt lat="49.840890" lon="24.033110">
        <ele>329.189509</ele>
        <time>2019-06-08T13:55:20.000Z</time>
      </trkpt>
      <trkpt lat="49.840980" lon="24.033068">
        <ele>329.049550</ele>
        <time>2019-06-08T13:55:41.000Z</time>
      </trkpt>
      <trkpt lat="49.841076" lon="24.033056">
        <ele>328.906130</ele>
        <time>2019-06-08T13:55:57.000Z</time>
      </trkpt>
      <trkpt lat="49.841164" lon="24.033026">
        <ele>328.798820</ele>
        <time>2019-06-08T13:56:08.000Z</time>
      </trkpt>
      <trkpt lat="49.841255" lon="24.033005">
        <ele>328.779363</ele>
        <time>2019-06-08T13:56:20.000Z</time>
      </trkpt>
      <trkpt lat="49.841340" lon="24.032942">
        <ele>328.759440</ele>
        <time>2019-06-08T13:56:31.000Z</time>
      </trkpt>
      <trkpt lat="49.841423" lon="24.032894">
        <ele>328.740706</ele>
        <time>2019-06-08T13:56:40.000Z</time>
      </trkpt>
      <trkpt lat="49.841515" lon="24.032852">
        <ele>328.720425</ele>
        <time>2019-06-08T13:56:48.000Z</time>
      </trkpt>
      <trkpt lat="49.841570" lon="24.032722">
        <ele>328.699220</ele>
        <time>2019-06-08T13:56:57.000Z</time>
      </trkpt>
      <trkpt lat="49.841614" lon="24.032587">
        <ele>328.678591</ele>
        <time>2019-06-08T13:57:07.000Z</time>
      </trkpt>
      <trkpt lat="49.841590" lon="24.032450">
        <ele>328.659230</ele>
        <time>2019-06-08T13:57:17.000Z</time>
      </trkpt>
      <trkpt lat="49.841540" lon="24.032331">
        <ele>328.639860</ele>
        <time>2019-06-08T13:57:30.000Z</time>
      </trkpt>
      <trkpt lat="49.841526" lon="24.032179">
        <ele>328.618919</ele>
        <time>2019-06-08T13:58:30.000Z</time>
      </trkpt>
      <trkpt lat="49.841568" lon="24.032038">
        <ele>328.597737</ele>
        <time>2019-06-08T13:58:50.000Z</time>
      </trkpt>
      <trkpt lat="49.841550" lon="24.031902">
        <ele>328.578803</ele>
        <time>2019-06-08T13:59:04.000Z</time>
      </trkpt>
      <trkpt lat="49.841553" lon="24.031736">
        <ele>328.556154</ele>
        <time>2019-06-08T13:59:19.000Z</time>
      </trkpt>
      <trkpt lat="49.841530" lon="24.031597">
        <ele>328.536583</ele>
        <time>2019-06-08T13:59:34.000Z</time>
      </trkpt>
      <trkpt lat="49.841507" lon="24.031458">
        <ele>328.517012</ele>
        <time>2019-06-08T13:59:46.000Z</time>
      </trkpt>
      <trkpt lat="49.841488" lon="24.031315">
        <ele>328.497100</ele>
        <time>2019-06-08T13:59:59.000Z</time>
      </trkpt>
      <trkpt lat="49.841430" lon="24.031199">
        <ele>328.477082</ele>
        <time>2019-06-08T14:00:11.000Z</time>
      </trkpt>
      <trkpt lat="49.841377" lon="24.031069">
        <ele>328.456106</ele>
        <time>2019-06-08T14:00:27.000Z</time>
      </trkpt>
      <trkpt lat="49.841293" lon="24.031004">
        <ele>328.436253</ele>
        <time>2019-06-08T14:00:34.000Z</time>
      </trkpt>
      <trkpt lat="49.841210" lon="24.030970">
        <ele>328.398491</ele>
        <time>2019-06-08T14:00:41.000Z</time>
      </trkpt>
      <trkpt lat="49.841293" lon="24.030914">
        <ele>328.301104</ele>
        <time>2019-06-08T14:01:30.000Z</time>
      </trkpt>
      <trkpt lat="49.841385" lon="24.030853">
        <ele>328.193450</ele>
        <time>2019-06-08T14:01:44.000Z</time>
      </trkpt>
      <trkpt lat="49.841476" lon="24.030828">
        <ele>328.094018</ele>
        <time>2019-06-08T14:01:57.000Z</time>
      </trkpt>
      <trkpt lat="49.841595" lon="24.030804">
        <ele>327.964906</ele>
        <time>2019-06-08T14:02:30.000Z</time>
      </trkpt>
      <trkpt lat="49.841686" lon="24.030800">
        <ele>327.866959</ele>
        <time>2019-06-08T14:02:48.000Z</time>
      </trkpt>
      <trkpt lat="49.841778" lon="24.030788">
        <ele>327.767626</ele>
        <time>2019-06-08T14:03:10.000Z</time>
      </trkpt>
      <trkpt lat="49.841870" lon="24.030811">
        <ele>327.667364</ele>
        <time>2019-06-08T14:03:25.000Z</time>
      </trkpt>
      <trkpt lat="49.841965" lon="24.030811">
        <ele>327.565153</ele>
        <time>2019-06-08T14:03:43.000Z</time>
      </trkpt>
      <trkpt lat="49.842050" lon="24.030746">
        <ele>327.463184</ele>
        <time>2019-06-08T14:04:03.000Z</time>
      </trkpt>
      <trkpt lat="49.841957" lon="24.030718">
        <ele>327.361256</ele>
        <time>2019-06-08T14:28:44.000Z</time>
      </trkpt>
      <trkpt lat="49.841860" lon="24.030735">
        <ele>327.256228</ele>
        <time>2019-06-08T14:28:54.000Z</time>
      </trkpt>
      <trkpt lat="49.841770" lon="24.030771">
        <ele>327.156227</ele>
        <time>2019-06-08T14:29:05.000Z</time>
      </trkpt>
      <trkpt lat="49.841680" lon="24.030819">
        <ele>327.053827</ele>
        <time>2019-06-08T14:29:18.000Z</time>
      </trkpt>
      <trkpt lat="49.841590" lon="24.030869">
        <ele>326.950968</ele>
        <time>2019-06-08T14:29:29.000Z</time>
      </trkpt>
      <trkpt lat="49.841500" lon="24.030884">
        <ele>326.853579</ele>
        <time>2019-06-08T14:29:39.000Z</time>
      </trkpt>
      <trkpt lat="49.841408" lon="24.030907">
        <ele>326.753317</ele>
        <time>2019-06-08T14:29:50.000Z</time>
      </trkpt>
      <trkpt lat="49.841316" lon="24.030940">
        <ele>326.651719</ele>
        <time>2019-06-08T14:30:00.000Z</time>
      </trkpt>
      <trkpt lat="49.841225" lon="24.030954">
        <ele>326.553331</ele>
        <time>2019-06-08T14:30:13.000Z</time>
      </trkpt>
      <trkpt lat="49.841133" lon="24.030931">
        <ele>326.847827</ele>
        <time>2019-06-08T14:30:25.000Z</time>
      </trkpt>
      <trkpt lat="49.840908" lon="24.030676">
        <ele>329.964147</ele>
        <time>2019-06-08T14:36:19.000Z</time>
      </trkpt>
      <trkpt lat="49.840816" lon="24.030660">
        <ele>330.999335</ele>
        <time>2019-06-08T14:36:32.000Z</time>
      </trkpt>
      <trkpt lat="49.840782" lon="24.030792">
        <ele>332.024351</ele>
        <time>2019-06-08T14:36:44.000Z</time>
      </trkpt>
      <trkpt lat="49.840816" lon="24.030949">
        <ele>333.218666</ele>
        <time>2019-06-08T14:36:48.000Z</time>
      </trkpt>
      <trkpt lat="49.840874" lon="24.031078">
        <ele>334.352693</ele>
        <time>2019-06-08T14:36:53.000Z</time>
      </trkpt>
      <trkpt lat="49.840780" lon="24.031097">
        <ele>335.412687</ele>
        <time>2019-06-08T14:37:12.000Z</time>
      </trkpt>
      <trkpt lat="49.840767" lon="24.031246">
        <ele>336.496971</ele>
        <time>2019-06-08T14:37:39.000Z</time>
      </trkpt>
      <trkpt lat="49.840794" lon="24.031110">
        <ele>337.523138</ele>
        <time>2019-06-08T14:38:25.000Z</time>
      </trkpt>
      <trkpt lat="49.840740" lon="24.030994">
        <ele>338.554821</ele>
        <time>2019-06-08T14:38:30.000Z</time>
      </trkpt>
      <trkpt lat="49.840664" lon="24.030900">
        <ele>339.641888</ele>
        <time>2019-06-08T14:38:44.000Z</time>
      </trkpt>
      <trkpt lat="49.840530" lon="24.030634">
        <ele>342.075972</ele>
        <time>2019-06-08T14:39:54.000Z</time>
      </trkpt>
      <trkpt lat="49.840492" lon="24.030502">
        <ele>343.118411</ele>
        <time>2019-06-08T14:40:10.000Z</time>
      </trkpt>
      <trkpt lat="49.840527" lon="24.030369">
        <ele>344.154306</ele>
        <time>2019-06-08T14:40:27.000Z</time>
      </trkpt>
      <trkpt lat="49.840614" lon="24.030424">
        <ele>345.204881</ele>
        <time>2019-06-08T14:40:41.000Z</time>
      </trkpt>
      <trkpt lat="49.840412" lon="24.030252">
        <ele>345.557203</ele>
        <time>2019-06-08T14:45:59.000Z</time>
      </trkpt>
      <trkpt lat="49.840378" lon="24.030107">
        <ele>344.575396</ele>
        <time>2019-06-08T14:46:03.000Z</time>
      </trkpt>
      <trkpt lat="49.840460" lon="24.030043">
        <ele>343.669570</ele>
        <time>2019-06-08T14:46:17.000Z</time>
      </trkpt>
      <trkpt lat="49.840538" lon="24.029947">
        <ele>342.686951</ele>
        <time>2019-06-08T14:46:23.000Z</time>
      </trkpt>
      <trkpt lat="49.840620" lon="24.029875">
        <ele>341.757125</ele>
        <time>2019-06-08T14:46:34.000Z</time>
      </trkpt>
      <trkpt lat="49.840710" lon="24.029903">
        <ele>340.851381</ele>
        <time>2019-06-08T14:47:11.000Z</time>
      </trkpt>
      <trkpt lat="49.840813" lon="24.029900">
        <ele>339.834883</ele>
        <time>2019-06-08T14:47:25.000Z</time>
      </trkpt>
      <trkpt lat="49.840900" lon="24.029846">
        <ele>338.910218</ele>
        <time>2019-06-08T14:47:39.000Z</time>
      </trkpt>
      <trkpt lat="49.840984" lon="24.029783">
        <ele>337.989513</ele>
        <time>2019-06-08T14:47:50.000Z</time>
      </trkpt>
      <trkpt lat="49.841060" lon="24.029694">
        <ele>337.049775</ele>
        <time>2019-06-08T14:48:03.000Z</time>
      </trkpt>
      <trkpt lat="49.841090" lon="24.029558">
        <ele>336.135123</ele>
        <time>2019-06-08T14:48:17.000Z</time>
      </trkpt>
      <trkpt lat="49.841150" lon="24.029446">
        <ele>335.208599</ele>
        <time>2019-06-08T14:48:30.000Z</time>
      </trkpt>
      <trkpt lat="49.841240" lon="24.029425">
        <ele>334.310555</ele>
        <time>2019-06-08T14:48:43.000Z</time>
      </trkpt>
      <trkpt lat="49.841316" lon="24.029330">
        <ele>333.347328</ele>
        <time>2019-06-08T14:48:54.000Z</time>
      </trkpt>
      <trkpt lat="49.841404" lon="24.029362">
        <ele>332.455460</ele>
        <time>2019-06-08T14:49:06.000Z</time>
      </trkpt>
      <trkpt lat="49.841476" lon="24.029238">
        <ele>331.393699</ele>
        <time>2019-06-08T14:49:26.000Z</time>
      </trkpt>
      <trkpt lat="49.841476" lon="24.029090">
        <ele>330.451918</ele>
        <time>2019-06-08T14:49:37.000Z</time>
      </trkpt>
      <trkpt lat="49.841465" lon="24.028944">
        <ele>329.516546</ele>
        <time>2019-06-08T14:49:50.000Z</time>
      </trkpt>
      <trkpt lat="49.841465" lon="24.028801">
        <ele>328.610673</ele>
        <time>2019-06-08T14:50:00.000Z</time>
      </trkpt>
      <trkpt lat="49.841396" lon="24.028698">
        <ele>327.681342</ele>
        <time>2019-06-08T14:50:16.000Z</time>
      </trkpt>
      <trkpt lat="49.841350" lon="24.028568">
        <ele>326.753458</ele>
        <time>2019-06-08T14:50:28.000Z</time>
      </trkpt>
      <trkpt lat="49.841366" lon="24.028421">
        <ele>325.820590</ele>
        <time>2019-06-08T14:50:41.000Z</time>
      </trkpt>
      <trkpt lat="49.841343" lon="24.028278">
        <ele>324.898352</ele>
        <time>2019-06-08T14:50:56.000Z</time>
      </trkpt>
      <trkpt lat="49.841250" lon="24.028294">
        <ele>323.990434</ele>
        <time>2019-06-08T14:51:06.000Z</time>
      </trkpt>
      <trkpt lat="49.841160" lon="24.028337">
        <ele>323.076647</ele>
        <time>2019-06-08T14:51:17.000Z</time>
      </trkpt>
      <trkpt lat="49.841194" lon="24.028196">
        <ele>322.134671</ele>
        <time>2019-06-08T14:52:21.000Z</time>
      </trkpt>
      <trkpt lat="49.841137" lon="24.028050">
        <ele>321.066700</ele>
        <time>2019-06-08T14:58:00.000Z</time>
      </trkpt>
      <trkpt lat="49.841230" lon="24.028010">
        <ele>320.130247</ele>
        <time>2019-06-08T14:58:10.000Z</time>
      </trkpt>
      <trkpt lat="49.841305" lon="24.027924">
        <ele>319.225155</ele>
        <time>2019-06-08T14:58:21.000Z</time>
      </trkpt>
      <trkpt lat="49.841400" lon="24.027905">
        <ele>318.295732</ele>
        <time>2019-06-08T14:58:35.000Z</time>
      </trkpt>
      <trkpt lat="49.841484" lon="24.027834">
        <ele>317.367453</ele>
        <time>2019-06-08T14:58:45.000Z</time>
      </trkpt>
      <trkpt lat="49.841362" lon="24.027810">
        <ele>316.174195</ele>
        <time>2019-06-08T15:00:12.000Z</time>
      </trkpt>
      <trkpt lat="49.841267" lon="24.027847">
        <ele>315.223775</ele>
        <time>2019-06-08T15:00:21.000Z</time>
      </trkpt>
      <trkpt lat="49.841183" lon="24.027891">
        <ele>314.363472</ele>
        <time>2019-06-08T15:00:32.000Z</time>
      </trkpt>
      <trkpt lat="49.841114" lon="24.027987">
        <ele>313.463964</ele>
        <time>2019-06-08T15:01:30.000Z</time>
      </trkpt>
      <trkpt lat="49.841026" lon="24.027952">
        <ele>312.582457</ele>
        <time>2019-06-08T15:01:42.000Z</time>
      </trkpt>
      <trkpt lat="49.840954" lon="24.028040">
        <ele>311.692905</ele>
        <time>2019-06-08T15:01:54.000Z</time>
      </trkpt>
      <trkpt lat="49.840878" lon="24.028120">
        <ele>311.361558</ele>
        <time>2019-06-08T15:02:04.000Z</time>
      </trkpt>
      <trkpt lat="49.840794" lon="24.028194">
        <ele>311.301015</ele>
        <time>2019-06-08T15:02:18.000Z</time>
      </trkpt>
      <trkpt lat="49.840714" lon="24.028286">
        <ele>311.238598</ele>
        <time>2019-06-08T15:02:29.000Z</time>
      </trkpt>
      <trkpt lat="49.840620" lon="24.028303">
        <ele>311.179291</ele>
        <time>2019-06-08T15:02:38.000Z</time>
      </trkpt>
      <trkpt lat="49.840530" lon="24.028341">
        <ele>311.120837</ele>
        <time>2019-06-08T15:02:47.000Z</time>
      </trkpt>
      <trkpt lat="49.840443" lon="24.028389">
        <ele>311.062967</ele>
        <time>2019-06-08T15:02:58.000Z</time>
      </trkpt>
      <trkpt lat="49.840347" lon="24.028421">
        <ele>311.001432</ele>
        <time>2019-06-08T15:03:08.000Z</time>
      </trkpt>
      <trkpt lat="49.840256" lon="24.028477">
        <ele>310.940078</ele>
        <time>2019-06-08T15:03:19.000Z</time>
      </trkpt>
      <trkpt lat="49.840150" lon="24.028510">
        <ele>310.872325</ele>
        <time>2019-06-08T15:03:28.000Z</time>
      </trkpt>
      <trkpt lat="49.840070" lon="24.028568">
        <ele>310.816981</ele>
        <time>2019-06-08T15:03:36.000Z</time>
      </trkpt>
      <trkpt lat="49.839990" lon="24.028639">
        <ele>310.759216</ele>
        <time>2019-06-08T15:03:51.000Z</time>
      </trkpt>
      <trkpt lat="49.839966" lon="24.028774">
        <ele>310.702620</ele>
        <time>2019-06-08T15:04:02.000Z</time>
      </trkpt>
      <trkpt lat="49.839870" lon="24.028830">
        <ele>310.638343</ele>
        <time>2019-06-08T15:04:11.000Z</time>
      </trkpt>
      <trkpt lat="49.839800" lon="24.028930">
        <ele>310.578695</ele>
        <time>2019-06-08T15:04:20.000Z</time>
      </trkpt>
      <trkpt lat="49.839725" lon="24.029007">
        <ele>310.522326</ele>
        <time>2019-06-08T15:04:27.000Z</time>
      </trkpt>
      <trkpt lat="49.839640" lon="24.028934">
        <ele>310.461434</ele>
        <time>2019-06-08T15:07:05.000Z</time>
      </trkpt>
      <trkpt lat="49.839590" lon="24.028824">
        <ele>310.407043</ele>
        <time>2019-06-08T15:07:16.000Z</time>
      </trkpt>
      <trkpt lat="49.839508" lon="24.028736">
        <ele>310.344549</ele>
        <time>2019-06-08T15:07:24.000Z</time>
      </trkpt>
      <trkpt lat="49.839430" lon="24.028645">
        <ele>310.283377</ele>
        <time>2019-06-08T15:07:31.000Z</time>
      </trkpt>
      <trkpt lat="49.839367" lon="24.028542">
        <ele>310.613277</ele>
        <time>2019-06-08T15:07:41.000Z</time>
      </trkpt>
      <trkpt lat="49.839325" lon="24.028404">
        <ele>311.059216</ele>
        <time>2019-06-08T15:07:51.000Z</time>
      </trkpt>
      <trkpt lat="49.839320" lon="24.028252">
        <ele>311.503996</ele>
        <time>2019-06-08T15:08:00.000Z</time>
      </trkpt>
      <trkpt lat="49.839300" lon="24.028114">
        <ele>311.917342</ele>
        <time>2019-06-08T15:08:10.000Z</time>
      </trkpt>
      <trkpt lat="49.839280" lon="24.027970">
        <ele>312.347814</ele>
        <time>2019-06-08T15:08:21.000Z</time>
      </trkpt>
      <trkpt lat="49.839252" lon="24.027822">
        <ele>312.798553</ele>
        <time>2019-06-08T15:08:32.000Z</time>
      </trkpt>
      <trkpt lat="49.839214" lon="24.027683">
        <ele>313.239753</ele>
        <time>2019-06-08T15:08:40.000Z</time>
      </trkpt>
      <trkpt lat="49.839150" lon="24.027580">
        <ele>313.657732</ele>
        <time>2019-06-08T15:08:49.000Z</time>
      </trkpt>
      <trkpt lat="49.839090" lon="24.027468">
        <ele>314.083230</ele>
        <time>2019-06-08T15:08:57.000Z</time>
      </trkpt>
      <trkpt lat="49.839030" lon="24.027348">
        <ele>314.526964</ele>
        <time>2019-06-08T15:09:06.000Z</time>
      </trkpt>
      <trkpt lat="49.838978" lon="24.027225">
        <ele>314.956765</ele>
        <time>2019-06-08T15:09:17.000Z</time>
      </trkpt>
      <trkpt lat="49.838882" lon="24.027208">
        <ele>315.394597</ele>
        <time>2019-06-08T15:09:23.000Z</time>
      </trkpt>
      <trkpt lat="49.838814" lon="24.027306">
        <ele>315.815271</ele>
        <time>2019-06-08T15:09:28.000Z</time>
      </trkpt>
      <trkpt lat="49.838750" lon="24.027430">
        <ele>316.279405</ele>
        <time>2019-06-08T15:09:34.000Z</time>
      </trkpt>
      <trkpt lat="49.838673" lon="24.027504">
        <ele>316.689900</ele>
        <time>2019-06-08T15:09:41.000Z</time>
      </trkpt>
      <trkpt lat="49.838577" lon="24.027575">
        <ele>317.171857</ele>
        <time>2019-06-08T15:09:50.000Z</time>
      </trkpt>
      <trkpt lat="49.838512" lon="24.027674">
        <ele>317.584721</ele>
        <time>2019-06-08T15:09:58.000Z</time>
      </trkpt>
      <trkpt lat="49.838432" lon="24.027740">
        <ele>317.995345</ele>
        <time>2019-06-08T15:10:04.000Z</time>
      </trkpt>
      <trkpt lat="49.838352" lon="24.027834">
        <ele>318.423245</ele>
        <time>2019-06-08T15:10:13.000Z</time>
      </trkpt>
      <trkpt lat="49.838290" lon="24.027940">
        <ele>318.423245</ele>
        <time>2019-06-08T15:10:20.000Z</time>
      </trkpt>
      <trkpt lat="49.838207" lon="24.027987">
        <ele>318.423245</ele>
        <time>2019-06-08T15:10:30.000Z</time>
      </trkpt>
      <trkpt lat="49.838180" lon="24.028131">
        <ele>318.423245</ele>
        <time>2019-06-08T15:10:41.000Z</time>
      </trkpt>
      <trkpt lat="49.838110" lon="24.027958">
        <ele>318.423245</ele>
        <time>2019-06-08T15:10:57.000Z</time>
      </trkpt>
      <trkpt lat="49.838333" lon="24.027802">
        <ele>318.423245</ele>
        <time>2019-06-08T15:12:16.000Z</time>
      </trkpt>
      <trkpt lat="49.838287" lon="24.027940">
        <ele>318.423245</ele>
        <time>2019-06-08T15:12:24.000Z</time>
      </trkpt>
      <trkpt lat="49.838203" lon="24.028019">
        <ele>318.423245</ele>
        <time>2019-06-08T15:12:29.000Z</time>
      </trkpt>
      <trkpt lat="49.838554" lon="24.028162">
        <ele>318.423245</ele>
        <time>2019-06-08T15:17:25.000Z</time>
      </trkpt>
      <trkpt lat="49.838387" lon="24.027890">
        <ele>318.423245</ele>
        <time>2019-06-08T15:17:27.000Z</time>
      </trkpt>
      <trkpt lat="49.838257" lon="24.027931">
        <ele>318.423245</ele>
        <time>2019-06-08T15:17:28.000Z</time>
      </trkpt>
      <trkpt lat="49.838280" lon="24.028074">
        <ele>318.423245</ele>
        <time>2019-06-08T15:17:29.000Z</time>
      </trkpt>
      <trkpt lat="49.838036" lon="24.027634">
        <ele>318.423245</ele>
        <time>2019-06-08T15:17:30.000Z</time>
      </trkpt>
      <trkpt lat="49.838310" lon="24.027988">
        <ele>318.423245</ele>
        <time>2019-06-08T15:17:43.000Z</time>
      </trkpt>
    </trkseg>
  </trk>
</gpx>